Observation data for McCamey on 04/24/2019      Previous  Date  Next       Current Mesonet Observations  Soil Data  Daily Summary Page  Observations in Plain Language
KMC4 240500Z 06017KT 14/13 A2994 RMK A01 T01380130  RH  095%=      5-min Rain = 0.02
KMC4 240501Z 06018G24KT 14/13 A2994 RMK A01 T01370130  RH  095%=      5-min Rain = 0.01
KMC4 240502Z 05015G20KT 14/13 A2994 RMK A01 T01360129  RH  096%=      5-min Rain = 0
KMC4 240503Z 04016KT 14/13 A2994 RMK A01 T01360129  RH  096%=      5-min Rain = 0
KMC4 240504Z 05015G21KT 14/13 A2995 RMK A01 T01360129  RH  095%=      5-min Rain = 0
KMC4 240505Z 06012KT 14/13 A2995 RMK A01 T01360129  RH  095%=      5-min Rain = 0.01
KMC4 240506Z 05015G22KT 14/13 A2996 RMK A01 T01370129  RH  095%=      5-min Rain = 0
KMC4 240507Z 07015KT 14/13 A2996 RMK A01 T01370129  RH  095%=      5-min Rain = 0
KMC4 240508Z 07016KT 14/13 A2996 RMK A01 T01370128  RH  094%=      5-min Rain = 0
KMC4 240509Z 06013KT 14/13 A2996 RMK A01 T01370128  RH  094%=      5-min Rain = 0
KMC4 240510Z 05016KT 14/13 A2996 RMK A01 T01370128  RH  094%=      5-min Rain = 0
KMC4 240511Z 05012KT 14/13 A2996 RMK A01 T01370127  RH  094%=      5-min Rain = 0
KMC4 240512Z 04013KT 14/13 A2995 RMK A01 T01370127  RH  094%=      5-min Rain = 0
KMC4 240513Z 05013G19KT 14/13 A2995 RMK A01 T01370128  RH  094%=      5-min Rain = 0.01
KMC4 240514Z 05013KT 14/13 A2995 RMK A01 T01370128  RH  094%=      5-min Rain = 0
KMC4 240515Z 05013KT 14/13 A2994 RMK A01 T01370128  RH  094%=      5-min Rain = 0
KMC4 240516Z 05012G18KT 14/13 A2994 RMK A01 T01370128  RH  094%=      5-min Rain = 0
KMC4 240517Z 06012KT 14/13 A2995 RMK A01 T01370127  RH  094%=      5-min Rain = 0
KMC4 240518Z 06011KT 14/13 A2995 RMK A01 T01370127  RH  094%=      5-min Rain = 0
KMC4 240519Z 05010KT 14/13 A2995 RMK A01 T01370127  RH  094%=      5-min Rain = 0
KMC4 240520Z 05013KT 14/13 A2995 RMK A01 T01360127  RH  094%=      5-min Rain = 0
KMC4 240521Z 06008KT 14/13 A2995 RMK A01 T01370127  RH  094%=      5-min Rain = 0
KMC4 240522Z 06009KT 14/13 A2995 RMK A01 T01370127  RH  093%=      5-min Rain = 0
KMC4 240523Z 05012KT 14/13 A2995 RMK A01 T01370126  RH  093%=      5-min Rain = 0
KMC4 240524Z 04012KT 14/13 A2995 RMK A01 T01370125  RH  092%=      5-min Rain = 0
KMC4 240525Z 04010KT 14/13 A2995 RMK A01 T01380125  RH  091%=      5-min Rain = 0
KMC4 240526Z 04009KT 14/13 A2995 RMK A01 T01390125  RH  091%=      5-min Rain = 0
KMC4 240527Z 04010KT 14/13 A2995 RMK A01 T01400125  RH  091%=      5-min Rain = 0
KMC4 240528Z 05008KT 14/12 A2996 RMK A01 T01400124  RH  090%=      5-min Rain = 0
KMC4 240529Z 05007KT 14/13 A2996 RMK A01 T01410125  RH  090%=      5-min Rain = 0
KMC4 240530Z 05008KT 14/13 A2996 RMK A01 T01410126  RH  091%=      5-min Rain = 0
KMC4 240531Z 05009KT 14/13 A2996 RMK A01 T01400125  RH  091%=      5-min Rain = 0
KMC4 240532Z 06008KT 14/13 A2996 RMK A01 T01400125  RH  091%=      5-min Rain = 0
KMC4 240533Z 05007KT 14/12 A2996 RMK A01 T01390124  RH  091%=      5-min Rain = 0
KMC4 240534Z 06009KT 14/12 A2996 RMK A01 T01390124  RH  091%=      5-min Rain = 0
KMC4 240535Z 05009KT 14/12 A2996 RMK A01 T01390124  RH  091%=      5-min Rain = 0
KMC4 240536Z 05008KT 14/13 A2996 RMK A01 T01390125  RH  091%=      5-min Rain = 0
KMC4 240537Z 05011KT 14/13 A2996 RMK A01 T01390125  RH  091%=      5-min Rain = 0
KMC4 240538Z 06010KT 14/13 A2996 RMK A01 T01390125  RH  091%=      5-min Rain = 0
KMC4 240539Z 05008KT 14/13 A2996 RMK A01 T01400126  RH  091%=      5-min Rain = 0
KMC4 240540Z 05011KT 14/13 A2996 RMK A01 T01400126  RH  091%=      5-min Rain = 0
KMC4 240541Z 05011KT 14/13 A2996 RMK A01 T01410126  RH  091%=      5-min Rain = 0
KMC4 240542Z 04009KT 14/13 A2996 RMK A01 T01410126  RH  091%=      5-min Rain = 0
KMC4 240543Z 05008KT 14/13 A2996 RMK A01 T01420126  RH  090%=      5-min Rain = 0
KMC4 240544Z 06009KT 14/13 A2996 RMK A01 T01410126  RH  091%=      5-min Rain = 0
KMC4 240545Z 06008KT 14/13 A2996 RMK A01 T01410127  RH  091%=      5-min Rain = 0
KMC4 240546Z 06008KT 14/13 A2996 RMK A01 T01410127  RH  091%=      5-min Rain = 0
KMC4 240547Z 06010KT 14/13 A2996 RMK A01 T01410127  RH  091%=      5-min Rain = 0
KMC4 240548Z 06010KT 14/13 A2996 RMK A01 T01400127  RH  091%=      5-min Rain = 0
KMC4 240549Z 05010KT 14/13 A2996 RMK A01 T01400127  RH  092%=      5-min Rain = 0
KMC4 240550Z 06010KT 14/13 A2996 RMK A01 T01400128  RH  092%=      5-min Rain = 0
KMC4 240551Z 06010KT 14/13 A2996 RMK A01 T01410129  RH  092%=      5-min Rain = 0
KMC4 240552Z 06010KT 14/13 A2995 RMK A01 T01410129  RH  092%=      5-min Rain = 0
KMC4 240553Z 06007KT 14/13 A2995 RMK A01 T01410129  RH  093%=      5-min Rain = 0
KMC4 240554Z 06009KT 14/13 A2995 RMK A01 T01410130  RH  093%=      5-min Rain = 0
KMC4 240555Z 06007KT 14/13 A2995 RMK A01 T01400129  RH  093%=      5-min Rain = 0
KMC4 240556Z 06006KT 14/13 A2995 RMK A01 T01400129  RH  093%=      5-min Rain = 0
KMC4 240557Z 06006KT 14/13 A2995 RMK A01 T01400129  RH  093%=      5-min Rain = 0
KMC4 240558Z 06005KT 14/13 A2995 RMK A01 T01400130  RH  094%=      5-min Rain = 0
KMC4 240559Z 04006KT 14/13 A2995 RMK A01 T01400131  RH  094%=      5-min Rain = 0
KMC4 240600Z 05008KT 14/13 A2995 RMK A01 T01400131  RH  094%=      5-min Rain = 0
KMC4 240601Z 06008KT 14/13 A2995 RMK A01 T01400131  RH  094%=      5-min Rain = 0
KMC4 240602Z 06011KT 14/13 A2996 RMK A01 T01400131  RH  094%=      5-min Rain = 0
KMC4 240603Z 07011KT 14/13 A2996 RMK A01 T01400131  RH  094%=      5-min Rain = 0
KMC4 240604Z 07010G15KT 14/13 A2996 RMK A01 T01400130  RH  094%=      5-min Rain = 0
KMC4 240605Z 07011KT 14/13 A2996 RMK A01 T01400130  RH  094%=      5-min Rain = 0
KMC4 240606Z 08011KT 14/13 A2996 RMK A01 T01400130  RH  094%=      5-min Rain = 0
KMC4 240607Z 08012KT 14/13 A2996 RMK A01 T01400130  RH  094%=      5-min Rain = 0
KMC4 240608Z 07012KT 14/13 A2995 RMK A01 T01400130  RH  093%=      5-min Rain = 0
KMC4 240609Z 07012KT 14/13 A2995 RMK A01 T01400130  RH  093%=      5-min Rain = 0
KMC4 240610Z 07013KT 14/13 A2995 RMK A01 T01400130  RH  093%=      5-min Rain = 0
KMC4 240611Z 07010KT 14/13 A2994 RMK A01 T01400129  RH  093%=      5-min Rain = 0
KMC4 240612Z 07011KT 14/13 A2995 RMK A01 T01410129  RH  093%=      5-min Rain = 0
KMC4 240613Z 07014KT 14/13 A2995 RMK A01 T01400129  RH  093%=      5-min Rain = 0
KMC4 240614Z 08012KT 14/13 A2995 RMK A01 T01410129  RH  092%=      5-min Rain = 0
KMC4 240615Z 07012KT 14/13 A2995 RMK A01 T01410128  RH  092%=      5-min Rain = 0
KMC4 240616Z 07010G15KT 14/13 A2995 RMK A01 T01410128  RH  092%=      5-min Rain = 0
KMC4 240617Z 07012KT 14/13 A2995 RMK A01 T01400128  RH  092%=      5-min Rain = 0
KMC4 240618Z 07013KT 14/13 A2994 RMK A01 T01410128  RH  092%=      5-min Rain = 0
KMC4 240619Z 06014KT 14/13 A2994 RMK A01 T01400128  RH  092%=      5-min Rain = 0
KMC4 240620Z 06013KT 14/13 A2994 RMK A01 T01410128  RH  092%=      5-min Rain = 0
KMC4 240621Z 06013KT 14/13 A2994 RMK A01 T01400128  RH  092%=      5-min Rain = 0
KMC4 240622Z 06011KT 14/13 A2994 RMK A01 T01400127  RH  092%=      5-min Rain = 0
KMC4 240623Z 06010KT 14/13 A2994 RMK A01 T01400128  RH  092%=      5-min Rain = 0
KMC4 240624Z 06011KT 14/13 A2994 RMK A01 T01400128  RH  092%=      5-min Rain = 0
KMC4 240625Z 07011KT 14/13 A2994 RMK A01 T01400127  RH  092%=      5-min Rain = 0
KMC4 240626Z 06010KT 14/13 A2994 RMK A01 T01400127  RH  092%=      5-min Rain = 0
KMC4 240627Z 05010G15KT 14/13 A2994 RMK A01 T01400126  RH  092%=      5-min Rain = 0
KMC4 240628Z 05013KT 14/13 A2994 RMK A01 T01390125  RH  091%=      5-min Rain = 0
KMC4 240629Z 04013KT 14/12 A2993 RMK A01 T01390123  RH  090%=      5-min Rain = 0
KMC4 240630Z 04012KT 14/12 A2993 RMK A01 T01390121  RH  089%=      5-min Rain = 0
KMC4 240631Z 05010KT 14/12 A2993 RMK A01 T01390121  RH  089%=      5-min Rain = 0
KMC4 240632Z 06009KT 14/12 A2993 RMK A01 T01390122  RH  089%=      5-min Rain = 0
KMC4 240633Z 06010KT 14/12 A2993 RMK A01 T01390122  RH  089%=      5-min Rain = 0
KMC4 240634Z 07010KT 14/12 A2993 RMK A01 T01380122  RH  090%=      5-min Rain = 0
KMC4 240635Z 07011KT 14/12 A2993 RMK A01 T01380121  RH  090%=      5-min Rain = 0
KMC4 240636Z 06009KT 14/12 A2993 RMK A01 T01370120  RH  089%=      5-min Rain = 0
KMC4 240637Z 06014G20KT 14/12 A2993 RMK A01 T01370119  RH  089%=      5-min Rain = 0
KMC4 240638Z 05011KT 14/12 A2993 RMK A01 T01370117  RH  088%=      5-min Rain = 0
KMC4 240639Z 05014KT 14/12 A2992 RMK A01 T01370118  RH  088%=      5-min Rain = 0
KMC4 240640Z 05012KT 14/12 A2992 RMK A01 T01370117  RH  088%=      5-min Rain = 0
KMC4 240641Z 06012G17KT 14/12 A2992 RMK A01 T01370117  RH  088%=      5-min Rain = 0
KMC4 240642Z 06016G21KT 14/12 A2992 RMK A01 T01360116  RH  087%=      5-min Rain = 0
KMC4 240643Z 06015KT 14/11 A2992 RMK A01 T01360114  RH  087%=      5-min Rain = 0
KMC4 240644Z 07013KT 14/12 A2992 RMK A01 T01360115  RH  087%=      5-min Rain = 0
KMC4 240645Z 06011G16KT 14/12 A2992 RMK A01 T01360116  RH  088%=      5-min Rain = 0
KMC4 240646Z 07009G14KT 14/12 A2993 RMK A01 T01360117  RH  088%=      5-min Rain = 0
KMC4 240647Z 06011KT 14/12 A2993 RMK A01 T01360116  RH  088%=      5-min Rain = 0
KMC4 240648Z 06013G18KT 14/12 A2993 RMK A01 T01350115  RH  088%=      5-min Rain = 0
KMC4 240649Z 06010KT 14/11 A2993 RMK A01 T01350114  RH  087%=      5-min Rain = 0
KMC4 240650Z 06011KT 14/11 A2993 RMK A01 T01350114  RH  087%=      5-min Rain = 0
KMC4 240651Z 05012KT 14/11 A2993 RMK A01 T01350114  RH  087%=      5-min Rain = 0
KMC4 240652Z 05013KT 14/11 A2993 RMK A01 T01350113  RH  087%=      5-min Rain = 0
KMC4 240653Z 05015KT 14/11 A2993 RMK A01 T01350113  RH  086%=      5-min Rain = 0
KMC4 240654Z 05012KT 13/11 A2993 RMK A01 T01340112  RH  086%=      5-min Rain = 0
KMC4 240655Z 05011G16KT 14/11 A2993 RMK A01 T01350114  RH  087%=      5-min Rain = 0
KMC4 240656Z 05014KT 13/11 A2993 RMK A01 T01340113  RH  087%=      5-min Rain = 0
KMC4 240657Z 05012KT 13/11 A2993 RMK A01 T01340113  RH  087%=      5-min Rain = 0
KMC4 240658Z 06011KT 13/11 A2994 RMK A01 T01340113  RH  087%=      5-min Rain = 0
KMC4 240659Z 06010KT 13/11 A2994 RMK A01 T01340114  RH  088%=      5-min Rain = 0
KMC4 240700Z 06010KT 13/11 A2994 RMK A01 T01340113  RH  088%=      5-min Rain = 0
KMC4 240701Z 06011KT 13/11 A2994 RMK A01 T01330114  RH  088%=      5-min Rain = 0
KMC4 240702Z 06012KT 13/11 A2993 RMK A01 T01330114  RH  088%=      5-min Rain = 0
KMC4 240703Z 05012KT 13/11 A2993 RMK A01 T01330114  RH  088%=      5-min Rain = 0
KMC4 240704Z 06013KT 13/12 A2993 RMK A01 T01330115  RH  089%=      5-min Rain = 0
KMC4 240705Z 06013KT 13/12 A2992 RMK A01 T01330115  RH  089%=      5-min Rain = 0
KMC4 240706Z 06010KT 13/12 A2993 RMK A01 T01330115  RH  089%=      5-min Rain = 0
KMC4 240707Z 06010KT 13/12 A2993 RMK A01 T01330116  RH  089%=      5-min Rain = 0
KMC4 240708Z 06011KT 13/12 A2993 RMK A01 T01330116  RH  089%=      5-min Rain = 0
KMC4 240709Z 05009KT 13/12 A2993 RMK A01 T01340117  RH  089%=      5-min Rain = 0
KMC4 240710Z 05009KT 13/12 A2993 RMK A01 T01340117  RH  090%=      5-min Rain = 0
KMC4 240711Z 04012KT 13/12 A2993 RMK A01 T01340118  RH  090%=      5-min Rain = 0
KMC4 240712Z 04012KT 13/12 A2993 RMK A01 T01340117  RH  089%=      5-min Rain = 0
KMC4 240713Z 04012KT 14/12 A2993 RMK A01 T01350118  RH  089%=      5-min Rain = 0
KMC4 240714Z 04010KT 14/12 A2993 RMK A01 T01360118  RH  089%=      5-min Rain = 0
KMC4 240715Z 04013G19KT 14/12 A2993 RMK A01 T01360118  RH  089%=      5-min Rain = 0
KMC4 240716Z 05012KT 14/12 A2993 RMK A01 T01360117  RH  088%=      5-min Rain = 0
KMC4 240717Z 05010KT 14/12 A2993 RMK A01 T01360117  RH  088%=      5-min Rain = 0
KMC4 240718Z 05013KT 14/12 A2993 RMK A01 T01360117  RH  088%=      5-min Rain = 0
KMC4 240719Z 05009KT 14/12 A2994 RMK A01 T01360116  RH  088%=      5-min Rain = 0
KMC4 240720Z 05011KT 14/12 A2994 RMK A01 T01370117  RH  088%=      5-min Rain = 0
KMC4 240721Z 05008KT 14/12 A2994 RMK A01 T01370117  RH  088%=      5-min Rain = 0
KMC4 240722Z 06010KT 14/12 A2994 RMK A01 T01370117  RH  088%=      5-min Rain = 0
KMC4 240723Z 07009KT 14/12 A2995 RMK A01 T01370117  RH  088%=      5-min Rain = 0
KMC4 240724Z 07009KT 14/12 A2995 RMK A01 T01370117  RH  088%=      5-min Rain = 0
KMC4 240725Z 08009KT 14/12 A2995 RMK A01 T01370118  RH  088%=      5-min Rain = 0
KMC4 240726Z 09011KT 14/12 A2995 RMK A01 T01380119  RH  088%=      5-min Rain = 0
KMC4 240727Z 09010KT 14/12 A2995 RMK A01 T01370119  RH  089%=      5-min Rain = 0
KMC4 240728Z 08011KT 14/12 A2996 RMK A01 T01360119  RH  089%=      5-min Rain = 0
KMC4 240729Z 08009KT 14/12 A2996 RMK A01 T01350118  RH  089%=      5-min Rain = 0
KMC4 240730Z 07009KT 14/12 A2996 RMK A01 T01350119  RH  090%=      5-min Rain = 0
KMC4 240731Z 07011KT 14/12 A2995 RMK A01 T01350118  RH  090%=      5-min Rain = 0
KMC4 240732Z 07009KT 14/12 A2995 RMK A01 T01350118  RH  089%=      5-min Rain = 0
KMC4 240733Z 06011KT 13/12 A2995 RMK A01 T01340117  RH  089%=      5-min Rain = 0
KMC4 240734Z 06011KT 13/12 A2994 RMK A01 T01340117  RH  089%=      5-min Rain = 0
KMC4 240735Z 05012KT 14/12 A2994 RMK A01 T01350118  RH  090%=      5-min Rain = 0
KMC4 240736Z 05010KT 14/12 A2994 RMK A01 T01350118  RH  090%=      5-min Rain = 0
KMC4 240737Z 05010KT 13/12 A2994 RMK A01 T01340119  RH  090%=      5-min Rain = 0
KMC4 240738Z 05009KT 14/12 A2993 RMK A01 T01350119  RH  090%=      5-min Rain = 0
KMC4 240739Z 04011KT 14/12 A2993 RMK A01 T01350119  RH  090%=      5-min Rain = 0
KMC4 240740Z 05011KT 14/12 A2993 RMK A01 T01350119  RH  090%=      5-min Rain = 0
KMC4 240741Z 04012KT 14/12 A2993 RMK A01 T01350118  RH  090%=      5-min Rain = 0
KMC4 240742Z 04011KT 13/12 A2993 RMK A01 T01340119  RH  090%=      5-min Rain = 0
KMC4 240743Z 04011KT 14/12 A2992 RMK A01 T01350119  RH  090%=      5-min Rain = 0
KMC4 240744Z 05011G16KT 13/12 A2992 RMK A01 T01340119  RH  090%=      5-min Rain = 0
KMC4 240745Z 05011KT 13/12 A2992 RMK A01 T01340119  RH  090%=      5-min Rain = 0
KMC4 240746Z 05010KT 13/12 A2992 RMK A01 T01340119  RH  090%=      5-min Rain = 0
KMC4 240747Z 06009G14KT 14/12 A2993 RMK A01 T01350119  RH  090%=      5-min Rain = 0
KMC4 240748Z 05010KT 13/12 A2993 RMK A01 T01340119  RH  090%=      5-min Rain = 0
KMC4 240749Z 05008KT 14/12 A2993 RMK A01 T01350120  RH  091%=      5-min Rain = 0
KMC4 240750Z 05009KT 14/12 A2993 RMK A01 T01350120  RH  091%=      5-min Rain = 0
KMC4 240751Z 05010KT 14/12 A2993 RMK A01 T01350119  RH  091%=      5-min Rain = 0
KMC4 240752Z 04009G14KT 14/12 A2993 RMK A01 T01350119  RH  090%=      5-min Rain = 0
KMC4 240753Z 04011KT 14/12 A2993 RMK A01 T01350118  RH  090%=      5-min Rain = 0
KMC4 240754Z 04009KT 14/12 A2993 RMK A01 T01350118  RH  090%=      5-min Rain = 0
KMC4 240755Z 05010KT 14/12 A2993 RMK A01 T01350119  RH  090%=      5-min Rain = 0
KMC4 240756Z 04010KT 14/12 A2993 RMK A01 T01360119  RH  090%=      5-min Rain = 0
KMC4 240757Z 04008KT 14/12 A2993 RMK A01 T01350119  RH  090%=      5-min Rain = 0
KMC4 240758Z 05008KT 14/12 A2993 RMK A01 T01360120  RH  090%=      5-min Rain = 0
KMC4 240759Z 05009KT 14/12 A2993 RMK A01 T01360120  RH  090%=      5-min Rain = 0
KMC4 240800Z 04009KT 14/12 A2994 RMK A01 T01360120  RH  090%=      5-min Rain = 0
KMC4 240801Z 05008KT 14/12 A2994 RMK A01 T01360120  RH  090%=      5-min Rain = 0
KMC4 240802Z 05007KT 14/12 A2994 RMK A01 T01360121  RH  090%=      5-min Rain = 0
KMC4 240803Z 05009KT 14/12 A2994 RMK A01 T01360120  RH  090%=      5-min Rain = 0
KMC4 240804Z 05009KT 14/12 A2994 RMK A01 T01360120  RH  090%=      5-min Rain = 0
KMC4 240805Z 05009KT 14/12 A2994 RMK A01 T01360121  RH  090%=      5-min Rain = 0
KMC4 240806Z 05008KT 14/12 A2994 RMK A01 T01360120  RH  090%=      5-min Rain = 0
KMC4 240807Z 05007KT 14/12 A2994 RMK A01 T01360121  RH  090%=      5-min Rain = 0
KMC4 240808Z 06008KT 14/12 A2994 RMK A01 T01360121  RH  090%=      5-min Rain = 0
KMC4 240809Z 05008KT 14/12 A2994 RMK A01 T01370121  RH  090%=      5-min Rain = 0
KMC4 240810Z 05007KT 14/12 A2994 RMK A01 T01370121  RH  090%=      5-min Rain = 0
KMC4 240811Z 05008KT 14/12 A2994 RMK A01 T01360121  RH  091%=      5-min Rain = 0
KMC4 240812Z 05008KT 14/12 A2994 RMK A01 T01370121  RH  090%=      5-min Rain = 0
KMC4 240813Z 05009KT 14/12 A2994 RMK A01 T01360121  RH  090%=      5-min Rain = 0
KMC4 240814Z 05009KT 14/12 A2994 RMK A01 T01360120  RH  090%=      5-min Rain = 0
KMC4 240815Z 04009KT 14/12 A2993 RMK A01 T01360120  RH  090%=      5-min Rain = 0
KMC4 240816Z 05009KT 14/12 A2993 RMK A01 T01360120  RH  090%=      5-min Rain = 0
KMC4 240817Z 04010KT 14/12 A2993 RMK A01 T01360121  RH  090%=      5-min Rain = 0
KMC4 240818Z 05011KT 14/12 A2993 RMK A01 T01360121  RH  090%=      5-min Rain = 0
KMC4 240819Z 05011KT 14/12 A2993 RMK A01 T01360121  RH  090%=      5-min Rain = 0
KMC4 240820Z 05010KT 14/12 A2993 RMK A01 T01360120  RH  090%=      5-min Rain = 0
KMC4 240821Z 04009KT 14/12 A2993 RMK A01 T01370121  RH  090%=      5-min Rain = 0
KMC4 240822Z 04010KT 14/12 A2993 RMK A01 T01370121  RH  090%=      5-min Rain = 0
KMC4 240823Z 04010KT 14/12 A2993 RMK A01 T01370121  RH  090%=      5-min Rain = 0
KMC4 240824Z 03011KT 14/12 A2993 RMK A01 T01370121  RH  090%=      5-min Rain = 0
KMC4 240825Z 04010KT 14/12 A2993 RMK A01 T01370121  RH  090%=      5-min Rain = 0
KMC4 240826Z 03010KT 14/12 A2993 RMK A01 T01380121  RH  090%=      5-min Rain = 0
KMC4 240827Z 03010KT 14/12 A2993 RMK A01 T01380122  RH  090%=      5-min Rain = 0
KMC4 240828Z 03011KT 14/12 A2993 RMK A01 T01390122  RH  090%=      5-min Rain = 0
KMC4 240829Z 03009KT 14/12 A2993 RMK A01 T01390123  RH  090%=      5-min Rain = 0
KMC4 240830Z 04007KT 14/12 A2994 RMK A01 T01390123  RH  090%=      5-min Rain = 0
KMC4 240831Z 05009KT 14/12 A2994 RMK A01 T01400123  RH  090%=      5-min Rain = 0
KMC4 240832Z 06008KT 14/12 A2994 RMK A01 T01400123  RH  090%=      5-min Rain = 0
KMC4 240833Z 06009KT 14/12 A2994 RMK A01 T01400123  RH  090%=      5-min Rain = 0
KMC4 240834Z 07008KT 14/12 A2995 RMK A01 T01400123  RH  090%=      5-min Rain = 0
KMC4 240835Z 07007KT 14/12 A2995 RMK A01 T01400123  RH  090%=      5-min Rain = 0
KMC4 240836Z 07008KT 14/12 A2995 RMK A01 T01400123  RH  090%=      5-min Rain = 0
KMC4 240837Z 07009KT 14/12 A2995 RMK A01 T01400123  RH  090%=      5-min Rain = 0
KMC4 240838Z 06008KT 14/12 A2995 RMK A01 T01400123  RH  090%=      5-min Rain = 0
KMC4 240839Z 06008KT 14/12 A2994 RMK A01 T01400123  RH  090%=      5-min Rain = 0
KMC4 240840Z 05008KT 14/12 A2994 RMK A01 T01400123  RH  090%=      5-min Rain = 0
KMC4 240841Z 06010KT 14/12 A2994 RMK A01 T01400123  RH  090%=      5-min Rain = 0
KMC4 240842Z 05010KT 14/12 A2994 RMK A01 T01400123  RH  090%=      5-min Rain = 0
KMC4 240843Z 05008KT 14/12 A2994 RMK A01 T01390123  RH  090%=      5-min Rain = 0
KMC4 240844Z 04012KT 14/12 A2993 RMK A01 T01400123  RH  090%=      5-min Rain = 0
KMC4 240845Z 04013KT 14/12 A2993 RMK A01 T01400123  RH  090%=      5-min Rain = 0
KMC4 240846Z 03012KT 14/12 A2993 RMK A01 T01400124  RH  090%=      5-min Rain = 0
KMC4 240847Z 04010KT 14/12 A2993 RMK A01 T01400124  RH  090%=      5-min Rain = 0
KMC4 240848Z 04012KT 14/12 A2992 RMK A01 T01410124  RH  090%=      5-min Rain = 0
KMC4 240849Z 04013KT 14/12 A2993 RMK A01 T01410124  RH  090%=      5-min Rain = 0
KMC4 240850Z 04011KT 14/12 A2993 RMK A01 T01410124  RH  090%=      5-min Rain = 0
KMC4 240851Z 05008G13KT 14/13 A2993 RMK A01 T01410125  RH  090%=      5-min Rain = 0
KMC4 240852Z 05009KT 14/13 A2993 RMK A01 T01410125  RH  090%=      5-min Rain = 0
KMC4 240853Z 04012KT 14/13 A2993 RMK A01 T01410125  RH  090%=      5-min Rain = 0
KMC4 240854Z 04011KT 14/13 A2993 RMK A01 T01410125  RH  090%=      5-min Rain = 0
KMC4 240855Z 04012KT 14/13 A2993 RMK A01 T01410125  RH  090%=      5-min Rain = 0
KMC4 240856Z 04013KT 14/13 A2993 RMK A01 T01410125  RH  090%=      5-min Rain = 0
KMC4 240857Z 04011KT 14/13 A2993 RMK A01 T01410125  RH  090%=      5-min Rain = 0
KMC4 240858Z 04011KT 14/13 A2993 RMK A01 T01410125  RH  090%=      5-min Rain = 0
KMC4 240859Z 04009KT 14/13 A2993 RMK A01 T01420126  RH  090%=      5-min Rain = 0
KMC4 240900Z 03008KT 14/13 A2993 RMK A01 T01420126  RH  090%=      5-min Rain = 0
KMC4 240901Z 04009KT 14/13 A2993 RMK A01 T01420126  RH  090%=      5-min Rain = 0
KMC4 240902Z 03012KT 14/13 A2993 RMK A01 T01420126  RH  090%=      5-min Rain = 0
KMC4 240903Z 03011KT 14/13 A2993 RMK A01 T01420126  RH  090%=      5-min Rain = 0
KMC4 240904Z 03010KT 14/13 A2993 RMK A01 T01420125  RH  090%=      5-min Rain = 0
KMC4 240905Z 03010KT 14/13 A2993 RMK A01 T01420126  RH  090%=      5-min Rain = 0
KMC4 240906Z 02009KT 14/13 A2993 RMK A01 T01420126  RH  090%=      5-min Rain = 0
KMC4 240907Z 03010KT 14/13 A2992 RMK A01 T01430126  RH  090%=      5-min Rain = 0
KMC4 240908Z 03009KT 14/13 A2992 RMK A01 T01420126  RH  090%=      5-min Rain = 0
KMC4 240909Z 03011KT 14/13 A2992 RMK A01 T01430126  RH  090%=      5-min Rain = 0
KMC4 240910Z 03012KT 14/13 A2992 RMK A01 T01430126  RH  090%=      5-min Rain = 0
KMC4 240911Z 03014KT 14/13 A2992 RMK A01 T01430126  RH  090%=      5-min Rain = 0
KMC4 240912Z 02014KT 14/13 A2991 RMK A01 T01430126  RH  089%=      5-min Rain = 0
KMC4 240913Z 02012KT 14/13 A2991 RMK A01 T01440126  RH  089%=      5-min Rain = 0
KMC4 240914Z 03013KT 14/13 A2991 RMK A01 T01440126  RH  089%=      5-min Rain = 0
KMC4 240915Z 02013KT 14/13 A2991 RMK A01 T01440126  RH  089%=      5-min Rain = 0
KMC4 240916Z 03013KT 14/13 A2991 RMK A01 T01440126  RH  089%=      5-min Rain = 0
KMC4 240917Z 03012KT 14/13 A2992 RMK A01 T01440126  RH  089%=      5-min Rain = 0
KMC4 240918Z 03011KT 14/13 A2992 RMK A01 T01440126  RH  089%=      5-min Rain = 0
KMC4 240919Z 03012KT 15/13 A2992 RMK A01 T01450127  RH  089%=      5-min Rain = 0
KMC4 240920Z 03011KT 15/13 A2992 RMK A01 T01450127  RH  089%=      5-min Rain = 0
KMC4 240921Z 03011KT 15/13 A2992 RMK A01 T01450127  RH  089%=      5-min Rain = 0
KMC4 240922Z 03011KT 15/13 A2992 RMK A01 T01450127  RH  089%=      5-min Rain = 0
KMC4 240923Z 03012KT 15/13 A2992 RMK A01 T01450127  RH  089%=      5-min Rain = 0
KMC4 240924Z 03011KT 15/13 A2993 RMK A01 T01450127  RH  089%=      5-min Rain = 0
KMC4 240925Z 04009KT 15/13 A2993 RMK A01 T01450128  RH  089%=      5-min Rain = 0
KMC4 240926Z 04009KT 15/13 A2993 RMK A01 T01450128  RH  090%=      5-min Rain = 0
KMC4 240927Z 06006KT 15/13 A2993 RMK A01 T01450128  RH  090%=      5-min Rain = 0
KMC4 240928Z 06006KT 15/13 A2993 RMK A01 T01450129  RH  090%=      5-min Rain = 0
KMC4 240929Z 07007KT 15/13 A2993 RMK A01 T01450128  RH  090%=      5-min Rain = 0
KMC4 240930Z 07008KT 15/13 A2993 RMK A01 T01450128  RH  090%=      5-min Rain = 0
KMC4 240931Z 07008KT 15/13 A2993 RMK A01 T01450129  RH  090%=      5-min Rain = 0
KMC4 240932Z 07009KT 15/13 A2993 RMK A01 T01450129  RH  090%=      5-min Rain = 0
KMC4 240933Z 07008KT 15/13 A2992 RMK A01 T01450129  RH  090%=      5-min Rain = 0
KMC4 240934Z 08006KT 15/13 A2992 RMK A01 T01450129  RH  090%=      5-min Rain = 0
KMC4 240935Z 07005KT 15/13 A2992 RMK A01 T01450129  RH  090%=      5-min Rain = 0
KMC4 240936Z 07010KT 15/13 A2992 RMK A01 T01450129  RH  090%=      5-min Rain = 0
KMC4 240937Z 06009KT 15/13 A2992 RMK A01 T01450129  RH  091%=      5-min Rain = 0
KMC4 240938Z 06007KT 14/13 A2992 RMK A01 T01440129  RH  091%=      5-min Rain = 0
KMC4 240939Z 06008KT 14/13 A2991 RMK A01 T01440130  RH  091%=      5-min Rain = 0
KMC4 240940Z 05009KT 14/13 A2991 RMK A01 T01440130  RH  091%=      5-min Rain = 0
KMC4 240941Z 05008KT 14/13 A2991 RMK A01 T01430130  RH  092%=      5-min Rain = 0
KMC4 240942Z 06009KT 14/13 A2991 RMK A01 T01430130  RH  092%=      5-min Rain = 0
KMC4 240943Z 05009KT 14/13 A2991 RMK A01 T01430130  RH  092%=      5-min Rain = 0
KMC4 240944Z 05009KT 14/13 A2991 RMK A01 T01430130  RH  092%=      5-min Rain = 0
KMC4 240945Z 05009KT 14/13 A2991 RMK A01 T01430130  RH  092%=      5-min Rain = 0
KMC4 240946Z 04010KT 14/13 A2991 RMK A01 T01430130  RH  092%=      5-min Rain = 0
KMC4 240947Z 05010KT 14/13 A2991 RMK A01 T01430130  RH  092%=      5-min Rain = 0
KMC4 240948Z 03010KT 14/13 A2991 RMK A01 T01430130  RH  092%=      5-min Rain = 0
KMC4 240949Z 04009KT 14/13 A2991 RMK A01 T01430130  RH  092%=      5-min Rain = 0
KMC4 240950Z 04009KT 14/13 A2991 RMK A01 T01430130  RH  092%=      5-min Rain = 0
KMC4 240951Z 04008KT 14/13 A2991 RMK A01 T01430131  RH  092%=      5-min Rain = 0
KMC4 240952Z 04009KT 14/13 A2991 RMK A01 T01440131  RH  092%=      5-min Rain = 0
KMC4 240953Z 03009KT 14/13 A2991 RMK A01 T01440131  RH  092%=      5-min Rain = 0
KMC4 240954Z 04009KT 14/13 A2991 RMK A01 T01440131  RH  092%=      5-min Rain = 0
KMC4 240955Z 03009KT 14/13 A2991 RMK A01 T01440131  RH  092%=      5-min Rain = 0
KMC4 240956Z 04011G16KT 14/13 A2991 RMK A01 T01440131  RH  092%=      5-min Rain = 0
KMC4 240957Z 04010KT 14/13 A2991 RMK A01 T01440131  RH  092%=      5-min Rain = 0
KMC4 240958Z 04008KT 14/13 A2991 RMK A01 T01440131  RH  092%=      5-min Rain = 0
KMC4 240959Z 04008KT 14/13 A2991 RMK A01 T01440131  RH  092%=      5-min Rain = 0
KMC4 241000Z 06008KT 14/13 A2991 RMK A01 T01440131  RH  092%=      5-min Rain = 0
KMC4 241001Z 06006KT 14/13 A2991 RMK A01 T01440131  RH  092%=      5-min Rain = 0
KMC4 241002Z 07007KT 14/13 A2991 RMK A01 T01440131  RH  092%=      5-min Rain = 0
KMC4 241003Z 07006KT 14/13 A2992 RMK A01 T01440132  RH  092%=      5-min Rain = 0
KMC4 241004Z 08006KT 14/13 A2992 RMK A01 T01440132  RH  092%=      5-min Rain = 0
KMC4 241005Z 07008KT 14/13 A2992 RMK A01 T01440132  RH  092%=      5-min Rain = 0
KMC4 241006Z 08006KT 14/13 A2992 RMK A01 T01440132  RH  092%=      5-min Rain = 0
KMC4 241007Z 07008KT 14/13 A2993 RMK A01 T01440132  RH  092%=      5-min Rain = 0
KMC4 241008Z 08008KT 14/13 A2993 RMK A01 T01440131  RH  092%=      5-min Rain = 0
KMC4 241009Z 08008KT 14/13 A2993 RMK A01 T01440131  RH  092%=      5-min Rain = 0
KMC4 241010Z 07006KT 14/13 A2993 RMK A01 T01440131  RH  092%=      5-min Rain = 0
KMC4 241011Z 09005KT 14/13 A2993 RMK A01 T01440131  RH  092%=      5-min Rain = 0
KMC4 241012Z 09005KT 15/13 A2993 RMK A01 T01450132  RH  092%=      5-min Rain = 0
KMC4 241013Z 08005KT 15/13 A2993 RMK A01 T01450132  RH  092%=      5-min Rain = 0
KMC4 241014Z 08006KT 15/13 A2993 RMK A01 T01450132  RH  092%=      5-min Rain = 0
KMC4 241015Z 08003KT 15/13 A2993 RMK A01 T01450132  RH  092%=      5-min Rain = 0
KMC4 241016Z 08005KT 15/13 A2993 RMK A01 T01450132  RH  092%=      5-min Rain = 0
KMC4 241017Z 07005KT 15/13 A2993 RMK A01 T01450132  RH  092%=      5-min Rain = 0
KMC4 241018Z 06004KT 15/13 A2993 RMK A01 T01450132  RH  092%=      5-min Rain = 0
KMC4 241019Z 07004KT 15/13 A2993 RMK A01 T01450132  RH  092%=      5-min Rain = 0
KMC4 241020Z 07004KT 15/13 A2993 RMK A01 T01450133  RH  092%=      5-min Rain = 0
KMC4 241021Z 07004KT 15/13 A2993 RMK A01 T01450133  RH  092%=      5-min Rain = 0
KMC4 241022Z 06004KT 15/13 A2993 RMK A01 T01450132  RH  092%=      5-min Rain = 0
KMC4 241023Z 06006KT 15/13 A2992 RMK A01 T01450132  RH  092%=      5-min Rain = 0
KMC4 241024Z 06005KT 15/13 A2992 RMK A01 T01450132  RH  092%=      5-min Rain = 0
KMC4 241025Z 05005KT 15/13 A2992 RMK A01 T01450132  RH  092%=      5-min Rain = 0
KMC4 241026Z 06005KT 15/13 A2992 RMK A01 T01450132  RH  092%=      5-min Rain = 0
KMC4 241027Z 06007KT 15/13 A2992 RMK A01 T01450132  RH  092%=      5-min Rain = 0
KMC4 241028Z 07006KT 15/13 A2992 RMK A01 T01450131  RH  091%=      5-min Rain = 0
KMC4 241029Z 07005KT 15/13 A2992 RMK A01 T01450132  RH  092%=      5-min Rain = 0
KMC4 241030Z 05008KT 15/13 A2992 RMK A01 T01460132  RH  092%=      5-min Rain = 0
KMC4 241031Z 08006KT 15/13 A2992 RMK A01 T01460132  RH  092%=      5-min Rain = 0
KMC4 241032Z 07006KT 15/13 A2992 RMK A01 T01460132  RH  092%=      5-min Rain = 0
KMC4 241033Z 07007KT 15/13 A2992 RMK A01 T01460133  RH  092%=      5-min Rain = 0
KMC4 241034Z 06007KT 15/13 A2992 RMK A01 T01460132  RH  092%=      5-min Rain = 0
KMC4 241035Z 06007KT 15/13 A2992 RMK A01 T01460132  RH  092%=      5-min Rain = 0
KMC4 241036Z 06008KT 15/13 A2992 RMK A01 T01450132  RH  092%=      5-min Rain = 0
KMC4 241037Z 06008KT 15/13 A2992 RMK A01 T01450132  RH  092%=      5-min Rain = 0
KMC4 241038Z 06008KT 15/13 A2992 RMK A01 T01450131  RH  091%=      5-min Rain = 0
KMC4 241039Z 06008KT 15/13 A2991 RMK A01 T01450131  RH  091%=      5-min Rain = 0
KMC4 241040Z 06007KT 15/13 A2991 RMK A01 T01450132  RH  092%=      5-min Rain = 0
KMC4 241041Z 06006KT 15/13 A2991 RMK A01 T01450133  RH  092%=      5-min Rain = 0
KMC4 241042Z 09007KT 15/13 A2991 RMK A01 T01450132  RH  092%=      5-min Rain = 0
KMC4 241043Z 09007KT 15/13 A2991 RMK A01 T01450132  RH  092%=      5-min Rain = 0
KMC4 241044Z 09005KT 15/13 A2991 RMK A01 T01450132  RH  092%=      5-min Rain = 0
KMC4 241045Z 11004KT 15/13 A2991 RMK A01 T01450132  RH  092%=      5-min Rain = 0
KMC4 241046Z 09004KT 15/13 A2992 RMK A01 T01450132  RH  092%=      5-min Rain = 0
KMC4 241047Z 07003KT 14/13 A2992 RMK A01 T01440133  RH  093%=      5-min Rain = 0
KMC4 241048Z 07003KT 14/13 A2992 RMK A01 T01440132  RH  093%=      5-min Rain = 0
KMC4 241049Z 07003KT 14/13 A2992 RMK A01 T01440132  RH  093%=      5-min Rain = 0
KMC4 241050Z 07004KT 14/13 A2992 RMK A01 T01440132  RH  093%=      5-min Rain = 0
KMC4 241051Z 07003KT 14/13 A2992 RMK A01 T01440132  RH  092%=      5-min Rain = 0
KMC4 241052Z 07002KT 14/13 A2992 RMK A01 T01430131  RH  093%=      5-min Rain = 0
KMC4 241053Z 07003KT 14/13 A2992 RMK A01 T01430132  RH  093%=      5-min Rain = 0
KMC4 241054Z 07004KT 14/13 A2991 RMK A01 T01430132  RH  093%=      5-min Rain = 0
KMC4 241055Z 06003KT 14/13 A2991 RMK A01 T01430131  RH  093%=      5-min Rain = 0
KMC4 241056Z 07003KT 14/13 A2991 RMK A01 T01430132  RH  093%=      5-min Rain = 0
KMC4 241057Z 07003KT 14/13 A2991 RMK A01 T01430132  RH  093%=      5-min Rain = 0
KMC4 241058Z 08003KT 14/13 A2991 RMK A01 T01430132  RH  093%=      5-min Rain = 0
KMC4 241059Z 08004KT 14/13 A2991 RMK A01 T01430132  RH  093%=      5-min Rain = 0
KMC4 241100Z 07005KT 14/13 A2991 RMK A01 T01430132  RH  093%=      5-min Rain = 0
KMC4 241101Z 08005KT 14/13 A2991 RMK A01 T01430132  RH  093%=      5-min Rain = 0
KMC4 241102Z 07005KT 14/13 A2991 RMK A01 T01430132  RH  093%=      5-min Rain = 0
KMC4 241103Z 06005KT 14/13 A2991 RMK A01 T01430131  RH  093%=      5-min Rain = 0
KMC4 241104Z 06006KT 14/13 A2991 RMK A01 T01420131  RH  093%=      5-min Rain = 0
KMC4 241105Z 07006KT 14/13 A2991 RMK A01 T01420131  RH  093%=      5-min Rain = 0
KMC4 241106Z 06005KT 14/13 A2991 RMK A01 T01420131  RH  093%=      5-min Rain = 0
KMC4 241107Z 05006KT 14/13 A2991 RMK A01 T01420131  RH  093%=      5-min Rain = 0
KMC4 241108Z 04006KT 14/13 A2991 RMK A01 T01420131  RH  093%=      5-min Rain = 0
KMC4 241109Z 04006KT 14/13 A2991 RMK A01 T01420131  RH  093%=      5-min Rain = 0
KMC4 241110Z 04007KT 14/13 A2991 RMK A01 T01420131  RH  093%=      5-min Rain = 0
KMC4 241111Z 04007KT 14/13 A2991 RMK A01 T01420131  RH  093%=      5-min Rain = 0
KMC4 241112Z 04008KT 14/13 A2991 RMK A01 T01430131  RH  093%=      5-min Rain = 0
KMC4 241113Z 04006KT 14/13 A2991 RMK A01 T01430131  RH  093%=      5-min Rain = 0
KMC4 241114Z 04007KT 14/13 A2991 RMK A01 T01420131  RH  093%=      5-min Rain = 0
KMC4 241115Z 04006KT 14/13 A2991 RMK A01 T01420131  RH  093%=      5-min Rain = 0
KMC4 241116Z 04007KT 14/13 A2991 RMK A01 T01430132  RH  093%=      5-min Rain = 0
KMC4 241117Z 04005KT 14/13 A2991 RMK A01 T01430132  RH  093%=      5-min Rain = 0
KMC4 241118Z 02006KT 14/13 A2991 RMK A01 T01430132  RH  093%=      5-min Rain = 0
KMC4 241119Z 03008KT 14/13 A2991 RMK A01 T01430132  RH  093%=      5-min Rain = 0
KMC4 241120Z 03008KT 14/13 A299 RMK A01 T01430131  RH  093%=      5-min Rain = 0
KMC4 241121Z 02006KT 14/13 A299 RMK A01 T01440131  RH  092%=      5-min Rain = 0
KMC4 241122Z 02007KT 15/13 A299 RMK A01 T01450131  RH  092%=      5-min Rain = 0
KMC4 241123Z 02008KT 15/13 A299 RMK A01 T01450131  RH  091%=      5-min Rain = 0
KMC4 241124Z 02009KT 15/13 A299 RMK A01 T01450130  RH  091%=      5-min Rain = 0
KMC4 241125Z 01007KT 15/13 A2989 RMK A01 T01450129  RH  090%=      5-min Rain = 0
KMC4 241126Z 01008KT 15/13 A2989 RMK A01 T01460129  RH  090%=      5-min Rain = 0
KMC4 241127Z 02007KT 15/13 A2989 RMK A01 T01460129  RH  090%=      5-min Rain = 0
KMC4 241128Z 01009KT 15/13 A2989 RMK A01 T01460129  RH  090%=      5-min Rain = 0
KMC4 241129Z 03009KT 15/13 A2989 RMK A01 T01460129  RH  089%=      5-min Rain = 0
KMC4 241130Z 02008KT 15/13 A2989 RMK A01 T01460128  RH  089%=      5-min Rain = 0
KMC4 241131Z 03006KT 15/13 A2989 RMK A01 T01460128  RH  089%=      5-min Rain = 0
KMC4 241132Z 02007KT 15/13 A2989 RMK A01 T01460129  RH  089%=      5-min Rain = 0
KMC4 241133Z 02009KT 15/13 A2989 RMK A01 T01470128  RH  089%=      5-min Rain = 0
KMC4 241134Z 01008KT 15/13 A299 RMK A01 T01470127  RH  088%=      5-min Rain = 0
KMC4 241135Z 01009G14KT 15/13 A299 RMK A01 T01470127  RH  088%=      5-min Rain = 0
KMC4 241136Z 01005KT 15/13 A299 RMK A01 T01470126  RH  088%=      5-min Rain = 0
KMC4 241137Z 02005KT 15/13 A299 RMK A01 T01460127  RH  088%=      5-min Rain = 0
KMC4 241138Z 02006KT 15/13 A299 RMK A01 T01470128  RH  088%=      5-min Rain = 0
KMC4 241139Z 03007KT 15/13 A299 RMK A01 T01460128  RH  089%=      5-min Rain = 0
KMC4 241140Z 01008KT 15/13 A299 RMK A01 T01470128  RH  089%=      5-min Rain = 0
KMC4 241141Z 02008KT 15/13 A299 RMK A01 T01470128  RH  088%=      5-min Rain = 0
KMC4 241142Z 02009KT 15/13 A2991 RMK A01 T01470128  RH  089%=      5-min Rain = 0
KMC4 241143Z 02009KT 15/13 A2991 RMK A01 T01460128  RH  089%=      5-min Rain = 0
KMC4 241144Z 01008KT 15/13 A2991 RMK A01 T01460128  RH  089%=      5-min Rain = 0
KMC4 241145Z 02008KT 15/13 A2991 RMK A01 T01460129  RH  089%=      5-min Rain = 0
KMC4 241146Z 03007KT 15/13 A2991 RMK A01 T01460128  RH  089%=      5-min Rain = 0
KMC4 241147Z 02007KT 15/13 A2991 RMK A01 T01460128  RH  089%=      5-min Rain = 0
KMC4 241148Z 03008KT 15/13 A2991 RMK A01 T01450128  RH  089%=      5-min Rain = 0
KMC4 241149Z 02007KT 15/13 A2991 RMK A01 T01460128  RH  089%=      5-min Rain = 0
KMC4 241150Z 03008KT 15/13 A2991 RMK A01 T01460128  RH  089%=      5-min Rain = 0
KMC4 241151Z 04012KT 15/13 A2991 RMK A01 T01450128  RH  089%=      5-min Rain = 0
KMC4 241152Z 03010KT 15/13 A2991 RMK A01 T01460128  RH  089%=      5-min Rain = 0
KMC4 241153Z 02007KT 15/13 A2991 RMK A01 T01460128  RH  089%=      5-min Rain = 0
KMC4 241154Z 03008KT 15/13 A2991 RMK A01 T01460129  RH  089%=      5-min Rain = 0
KMC4 241155Z 01007KT 15/13 A2991 RMK A01 T01450129  RH  090%=      5-min Rain = 0
KMC4 241156Z 02007KT 15/13 A2991 RMK A01 T01450128  RH  089%=      5-min Rain = 0
KMC4 241157Z 03008KT 15/13 A2991 RMK A01 T01450127  RH  089%=      5-min Rain = 0
KMC4 241158Z 02010KT 15/13 A2991 RMK A01 T01450128  RH  089%=      5-min Rain = 0
KMC4 241159Z 02009KT 15/13 A2991 RMK A01 T01450128  RH  090%=      5-min Rain = 0
KMC4 241200Z 03008KT 15/13 A2991 RMK A01 T01450128  RH  090%=      5-min Rain = 0
KMC4 241201Z 04008KT 14/13 A2991 RMK A01 T01440128  RH  090%=      5-min Rain = 0
KMC4 241202Z 04008KT 14/13 A2991 RMK A01 T01440128  RH  090%=      5-min Rain = 0
KMC4 241203Z 04008KT 14/13 A2991 RMK A01 T01440128  RH  090%=      5-min Rain = 0
KMC4 241204Z 05011KT 14/13 A2991 RMK A01 T01440129  RH  090%=      5-min Rain = 0
KMC4 241205Z 04009KT 14/13 A2991 RMK A01 T01440129  RH  090%=      5-min Rain = 0
KMC4 241206Z 05009KT 14/13 A2991 RMK A01 T01430129  RH  091%=      5-min Rain = 0
KMC4 241207Z 05009KT 14/13 A2992 RMK A01 T01430129  RH  091%=      5-min Rain = 0
KMC4 241208Z 04009KT 14/13 A2992 RMK A01 T01430129  RH  091%=      5-min Rain = 0
KMC4 241209Z 05007KT 14/13 A2992 RMK A01 T01420129  RH  092%=      5-min Rain = 0
KMC4 241210Z 06005KT 14/13 A2992 RMK A01 T01420129  RH  092%=      5-min Rain = 0
KMC4 241211Z 05005KT 14/13 A2992 RMK A01 T01420129  RH  092%=      5-min Rain = 0
KMC4 241212Z 03007KT 14/13 A2992 RMK A01 T01420129  RH  092%=      5-min Rain = 0
KMC4 241213Z 04006KT 14/13 A2992 RMK A01 T01420129  RH  092%=      5-min Rain = 0
KMC4 241214Z 04006KT 14/13 A2992 RMK A01 T01420129  RH  092%=      5-min Rain = 0
KMC4 241215Z 04005KT 14/13 A2992 RMK A01 T01420129  RH  092%=      5-min Rain = 0
KMC4 241216Z 04009KT 14/13 A2992 RMK A01 T01410129  RH  092%=      5-min Rain = 0
KMC4 241217Z 04007KT 14/13 A2993 RMK A01 T01410128  RH  092%=      5-min Rain = 0
KMC4 241218Z 05007KT 14/13 A2993 RMK A01 T01410128  RH  092%=      5-min Rain = 0
KMC4 241219Z 05007KT 14/13 A2993 RMK A01 T01400128  RH  092%=      5-min Rain = 0
KMC4 241220Z 04005KT 14/13 A2993 RMK A01 T01400128  RH  093%=      5-min Rain = 0
KMC4 241221Z 03005KT 14/13 A2993 RMK A01 T01400129  RH  093%=      5-min Rain = 0
KMC4 241222Z 03006KT 14/13 A2993 RMK A01 T01400129  RH  093%=      5-min Rain = 0
KMC4 241223Z 02008KT 14/13 A2993 RMK A01 T01400129  RH  093%=      5-min Rain = 0
KMC4 241224Z 03009KT 14/13 A2992 RMK A01 T01400129  RH  093%=      5-min Rain = 0
KMC4 241225Z 03009KT 14/13 A2992 RMK A01 T01390128  RH  093%=      5-min Rain = 0
KMC4 241226Z 02007KT 14/13 A2992 RMK A01 T01390129  RH  094%=      5-min Rain = 0
KMC4 241227Z 02006KT 14/13 A2992 RMK A01 T01390129  RH  094%=      5-min Rain = 0
KMC4 241228Z 01005KT 14/13 A2992 RMK A01 T01380129  RH  094%=      5-min Rain = 0
KMC4 241229Z 02005KT 14/13 A2992 RMK A01 T01380129  RH  094%=      5-min Rain = 0
KMC4 241230Z 35004KT 14/13 A2992 RMK A01 T01380129  RH  094%=      5-min Rain = 0
KMC4 241231Z 35005KT 14/13 A2992 RMK A01 T01380129  RH  094%=      5-min Rain = 0
KMC4 241232Z 36006KT 14/13 A2992 RMK A01 T01380129  RH  094%=      5-min Rain = 0
KMC4 241233Z 36005KT 14/13 A2993 RMK A01 T01380129  RH  094%=      5-min Rain = 0
KMC4 241234Z 36008KT 14/13 A2993 RMK A01 T01380129  RH  094%=      5-min Rain = 0
KMC4 241235Z 35007KT 14/13 A2993 RMK A01 T01380129  RH  094%=      5-min Rain = 0
KMC4 241236Z 36007KT 14/13 A2993 RMK A01 T01380129  RH  094%=      5-min Rain = 0
KMC4 241237Z 35006KT 14/13 A2993 RMK A01 T01380129  RH  094%=      5-min Rain = 0
KMC4 241238Z 35006KT 14/13 A2993 RMK A01 T01380129  RH  094%=      5-min Rain = 0
KMC4 241239Z 36007KT 14/13 A2993 RMK A01 T01380129  RH  095%=      5-min Rain = 0.02
KMC4 241240Z 35005KT 14/13 A2993 RMK A01 T01380129  RH  095%=      5-min Rain = 0
KMC4 241241Z 35007KT 14/13 A2993 RMK A01 T01380129  RH  095%=      5-min Rain = 0
KMC4 241242Z 35007KT 14/13 A2993 RMK A01 T01370129  RH  095%=      5-min Rain = 0
KMC4 241243Z 35008KT 14/13 A2993 RMK A01 T01370129  RH  095%=      5-min Rain = 0
KMC4 241244Z 35009KT 14/13 A2993 RMK A01 T01370129  RH  095%=      5-min Rain = 0
KMC4 241245Z 34008KT 14/13 A2993 RMK A01 T01380129  RH  095%=      5-min Rain = 0
KMC4 241246Z 34010KT 14/13 A2993 RMK A01 T01370129  RH  095%=      5-min Rain = 0
KMC4 241247Z 33009KT 14/13 A2992 RMK A01 T01380130  RH  095%=      5-min Rain = 0
KMC4 241248Z 32009KT 14/13 A2992 RMK A01 T01370130  RH  095%=      5-min Rain = 0
KMC4 241249Z 32010KT 14/13 A2992 RMK A01 T01370130  RH  095%=      5-min Rain = 0
KMC4 241250Z 32010KT 14/13 A2992 RMK A01 T01370130  RH  095%=      5-min Rain = 0
KMC4 241251Z 31008KT 14/13 A2992 RMK A01 T01370130  RH  095%=      5-min Rain = 0
KMC4 241252Z 31008KT 14/13 A2992 RMK A01 T01370131  RH  096%=      5-min Rain = 0.01
KMC4 241253Z 32009KT 14/13 A2993 RMK A01 T01370131  RH  096%=      5-min Rain = 0
KMC4 241254Z 32008KT 14/13 A2993 RMK A01 T01370131  RH  096%=      5-min Rain = 0
KMC4 241255Z 32008KT 14/13 A2993 RMK A01 T01380131  RH  096%=      5-min Rain = 0
KMC4 241256Z 32008KT 14/13 A2993 RMK A01 T01370131  RH  096%=      5-min Rain = 0
KMC4 241257Z 33007KT 14/13 A2994 RMK A01 T01380131  RH  096%=      5-min Rain = 0.01
KMC4 241258Z 33007KT 14/13 A2994 RMK A01 T01370131  RH  096%=      5-min Rain = 0
KMC4 241259Z 33006KT 14/13 A2995 RMK A01 T01370131  RH  096%=      5-min Rain = 0
KMC4 241300Z 34006KT 14/13 A2995 RMK A01 T01370131  RH  096%=      5-min Rain = 0
KMC4 241301Z 34006KT 14/13 A2995 RMK A01 T01380131  RH  096%=      5-min Rain = 0
KMC4 241302Z 34005KT 14/13 A2995 RMK A01 T01370131  RH  096%=      5-min Rain = 0.01
KMC4 241303Z 35005KT 14/13 A2996 RMK A01 T01370131  RH  096%=      5-min Rain = 0
KMC4 241304Z 34004KT 14/13 A2996 RMK A01 T01370130  RH  096%=      5-min Rain = 0
KMC4 241305Z 34005KT 14/13 A2996 RMK A01 T01370131  RH  096%=      5-min Rain = 0
KMC4 241306Z 34005KT 14/13 A2996 RMK A01 T01370130  RH  096%=      5-min Rain = 0.01
KMC4 241307Z 33004KT 14/13 A2996 RMK A01 T01370130  RH  096%=      5-min Rain = 0
KMC4 241308Z 33005KT 14/13 A2997 RMK A01 T01370130  RH  096%=      5-min Rain = 0
KMC4 241309Z 32005KT 14/13 A2997 RMK A01 T01370130  RH  095%=      5-min Rain = 0
KMC4 241310Z 32005KT 14/13 A2997 RMK A01 T01370130  RH  095%=      5-min Rain = 0
KMC4 241311Z 31005KT 14/13 A2997 RMK A01 T01370130  RH  095%=      5-min Rain = 0
KMC4 241312Z 31005KT 14/13 A2997 RMK A01 T01370130  RH  095%=      5-min Rain = 0.01
KMC4 241313Z 30004KT 14/13 A2998 RMK A01 T01370130  RH  095%=      5-min Rain = 0
KMC4 241314Z 30005KT 14/13 A2998 RMK A01 T01380131  RH  095%=      5-min Rain = 0
KMC4 241315Z 29005KT 14/13 A2998 RMK A01 T01370130  RH  095%=      5-min Rain = 0.01
KMC4 241316Z 29006KT 14/13 A2998 RMK A01 T01370130  RH  096%=      5-min Rain = 0
KMC4 241317Z 28007KT 14/13 A2999 RMK A01 T01380131  RH  096%=      5-min Rain = 0
KMC4 241318Z 28007KT 14/13 A2999 RMK A01 T01380131  RH  096%=      5-min Rain = 0.01
KMC4 241319Z 28006KT 14/13 A2999 RMK A01 T01380131  RH  096%=      5-min Rain = 0.02
KMC4 241320Z 28007KT 14/13 A2999 RMK A01 T01380132  RH  096%=      5-min Rain = 0.01
KMC4 241321Z 28008KT 14/13 A2999 RMK A01 T01380131  RH  096%=      5-min Rain = 0.02
KMC4 241322Z 28010KT 14/13 A30 RMK A01 T01380132  RH  096%=      5-min Rain = 0.01
KMC4 241323Z 29009KT 14/13 A30 RMK A01 T01370131  RH  096%=      5-min Rain = 0.02
KMC4 241324Z 28009KT 14/13 A30 RMK A01 T01370131  RH  096%=      5-min Rain = 0.02
KMC4 241325Z 28010KT 14/13 A30 RMK A01 T01370131  RH  096%=      5-min Rain = 0.02
KMC4 241326Z 29009KT 14/13 A30 RMK A01 T01370131  RH  096%=      5-min Rain = 0.02
KMC4 241327Z 29009KT 14/13 A30 RMK A01 T01360131  RH  096%=      5-min Rain = 0.02
KMC4 241328Z 29007KT 14/13 A30 RMK A01 T01360130  RH  096%=      5-min Rain = 0.01
KMC4 241329Z 30010KT 14/13 A30 RMK A01 T01360130  RH  096%=      5-min Rain = 0.01
KMC4 241330Z 30008KT 14/13 A30 RMK A01 T01360130  RH  097%=      5-min Rain = 0.01
KMC4 241331Z 30009KT 14/13 A30 RMK A01 T01350130  RH  097%=      5-min Rain = 0.02
KMC4 241332Z 30008KT 14/13 A30 RMK A01 T01350130  RH  097%=      5-min Rain = 0.01
KMC4 241333Z 30008KT 14/13 A3001 RMK A01 T01350130  RH  097%=      5-min Rain = 0.01
KMC4 241334Z 30007KT 14/13 A3001 RMK A01 T01350130  RH  097%=      5-min Rain = 0.01
KMC4 241335Z 29009KT 14/13 A3001 RMK A01 T01350130  RH  097%=      5-min Rain = 0.01
KMC4 241336Z 29009KT 14/13 A3001 RMK A01 T01350130  RH  097%=      5-min Rain = 0
KMC4 241337Z 29008KT 13/13 A3001 RMK A01 T01340130  RH  097%=      5-min Rain = 0.01
KMC4 241338Z 29008KT 14/13 A3002 RMK A01 T01350130  RH  097%=      5-min Rain = 0.01
KMC4 241339Z 28009KT 14/13 A3002 RMK A01 T01350130  RH  097%=      5-min Rain = 0.01
KMC4 241340Z 29009KT 14/13 A3002 RMK A01 T01350130  RH  097%=      5-min Rain = 0
KMC4 241341Z 29008KT 13/13 A3002 RMK A01 T01340130  RH  097%=      5-min Rain = 0.01
KMC4 241342Z 28009KT 13/13 A3002 RMK A01 T01340130  RH  097%=      5-min Rain = 0.01
KMC4 241343Z 28008KT 13/13 A3002 RMK A01 T01340130  RH  097%=      5-min Rain = 0.01
KMC4 241344Z 28008KT 14/13 A3002 RMK A01 T01350131  RH  098%=      5-min Rain = 0.01
KMC4 241345Z 28008KT 14/13 A3003 RMK A01 T01350131  RH  098%=      5-min Rain = 0.01
KMC4 241346Z 28009KT 14/13 A3003 RMK A01 T01350131  RH  098%=      5-min Rain = 0.01
KMC4 241347Z 28009KT 14/13 A3003 RMK A01 T01350131  RH  098%=      5-min Rain = 0.01
KMC4 241348Z 28010KT 14/13 A3003 RMK A01 T01350131  RH  098%=      5-min Rain = 0
KMC4 241349Z 28011KT 14/13 A3003 RMK A01 T01350131  RH  098%=      5-min Rain = 0.02
KMC4 241350Z 29011KT 13/13 A3003 RMK A01 T01340131  RH  098%=      5-min Rain = 0.01
KMC4 241351Z 29012KT 13/13 A3003 RMK A01 T01340130  RH  098%=      5-min Rain = 0.01
KMC4 241352Z 29012KT 13/13 A3003 RMK A01 T01340130  RH  098%=      5-min Rain = 0.01
KMC4 241353Z 29012KT 13/13 A3003 RMK A01 T01330129  RH  098%=      5-min Rain = 0.01
KMC4 241354Z 28011KT 13/13 A3003 RMK A01 T01330129  RH  098%=      5-min Rain = 0.01
KMC4 241355Z 29013KT 13/13 A3003 RMK A01 T01320129  RH  098%=      5-min Rain = 0.01
KMC4 241356Z 29011KT 13/13 A3003 RMK A01 T01320129  RH  098%=      5-min Rain = 0
KMC4 241357Z 29011KT 13/13 A3003 RMK A01 T01320128  RH  098%=      5-min Rain = 0.01
KMC4 241358Z 30010KT 13/13 A3003 RMK A01 T01320128  RH  098%=      5-min Rain = 0
KMC4 241359Z 30010KT 13/13 A3003 RMK A01 T01320128  RH  098%=      5-min Rain = 0.01
KMC4 241400Z 30010KT 13/13 A3003 RMK A01 T01320128  RH  098%=      5-min Rain = 0.01
KMC4 241401Z 30009KT 13/13 A3003 RMK A01 T01320128  RH  098%=      5-min Rain = 0.01
KMC4 241402Z 31010KT 13/13 A3003 RMK A01 T01310128  RH  098%=      5-min Rain = 0.01
KMC4 241403Z 32008KT 13/13 A3002 RMK A01 T01310128  RH  098%=      5-min Rain = 0.01
KMC4 241404Z 31008KT 13/13 A3002 RMK A01 T01310128  RH  098%=      5-min Rain = 0
KMC4 241405Z 32010KT 13/13 A3002 RMK A01 T01310128  RH  098%=      5-min Rain = 0.02
KMC4 241406Z 32009G14KT 13/13 A3002 RMK A01 T01310128  RH  098%=      5-min Rain = 0.01
KMC4 241407Z 32011KT 13/13 A3002 RMK A01 T01310127  RH  098%=      5-min Rain = 0
KMC4 241408Z 32010KT 13/13 A3002 RMK A01 T01300127  RH  098%=      5-min Rain = 0.01
KMC4 241409Z 32011KT 13/13 A3002 RMK A01 T01300127  RH  098%=      5-min Rain = 0
KMC4 241410Z 31010KT 13/13 A3001 RMK A01 T01310127  RH  098%=      5-min Rain = 0.01
KMC4 241411Z 32009KT 13/13 A3001 RMK A01 T01310127  RH  098%=      5-min Rain = 0.01
KMC4 241412Z 32008KT 13/13 A3001 RMK A01 T01300127  RH  098%=      5-min Rain = 0.01
KMC4 241413Z 32008KT 13/13 A3001 RMK A01 T01310127  RH  098%=      5-min Rain = 0.01
KMC4 241414Z 31009KT 13/13 A3001 RMK A01 T01300127  RH  098%=      5-min Rain = 0.01
KMC4 241415Z 31010KT 13/13 A3001 RMK A01 T01300127  RH  098%=      5-min Rain = 0.01
KMC4 241416Z 31010KT 13/13 A3001 RMK A01 T01300127  RH  098%=      5-min Rain = 0.01
KMC4 241417Z 31011KT 13/13 A3001 RMK A01 T01300127  RH  098%=      5-min Rain = 0.01
KMC4 241418Z 31010KT 13/13 A3001 RMK A01 T01290126  RH  098%=      5-min Rain = 0
KMC4 241419Z 32010KT 13/13 A3001 RMK A01 T01300126  RH  098%=      5-min Rain = 0.01
KMC4 241420Z 31010KT 13/13 A3001 RMK A01 T01290126  RH  098%=      5-min Rain = 0.01
KMC4 241434Z 31008KT 13/13 A3002 RMK A01 T01290126  RH  098%=      5-min Rain = 0
KMC4 241435Z 32006KT 13/13 A3002 RMK A01 T01280125  RH  098%=      5-min Rain = 0.01
KMC4 241436Z 32008KT 13/13 A3002 RMK A01 T01280125  RH  098%=      5-min Rain = 0
KMC4 241437Z 32006KT 13/13 A3002 RMK A01 T01280125  RH  098%=      5-min Rain = 0.01
KMC4 241438Z 32007KT 13/13 A3002 RMK A01 T01290126  RH  098%=      5-min Rain = 0.01
KMC4 241439Z 31008KT 13/13 A3002 RMK A01 T01290126  RH  098%=      5-min Rain = 0
KMC4 241440Z 33008KT 13/13 A3002 RMK A01 T01290126  RH  098%=      5-min Rain = 0
KMC4 241441Z 31009KT 13/13 A3002 RMK A01 T01290126  RH  098%=      5-min Rain = 0
KMC4 241442Z 31010KT 13/13 A3002 RMK A01 T01290126  RH  098%=      5-min Rain = 0.01
KMC4 241443Z 31008KT 13/13 A3003 RMK A01 T01280125  RH  098%=      5-min Rain = 0
KMC4 241444Z 31008KT 13/13 A3003 RMK A01 T01280125  RH  098%=      5-min Rain = 0.01
KMC4 241445Z 32008KT 13/13 A3003 RMK A01 T01280125  RH  098%=      5-min Rain = 0.01
KMC4 241446Z 31009KT 13/13 A3003 RMK A01 T01280125  RH  098%=      5-min Rain = 0
KMC4 241447Z 32009KT 13/13 A3003 RMK A01 T01280125  RH  098%=      5-min Rain = 0.01
KMC4 241448Z 32008KT 13/13 A3003 RMK A01 T01280125  RH  098%=      5-min Rain = 0.01
KMC4 241449Z 32008KT 13/13 A3003 RMK A01 T01280125  RH  098%=      5-min Rain = 0
KMC4 241450Z 32009KT 13/13 A3003 RMK A01 T01280125  RH  098%=      5-min Rain = 0.01
KMC4 241451Z 32010KT 13/13 A3003 RMK A01 T01280125  RH  098%=      5-min Rain = 0
KMC4 241452Z 32009KT 13/13 A3003 RMK A01 T01280125  RH  098%=      5-min Rain = 0.01
KMC4 241453Z 32008KT 13/13 A3003 RMK A01 T01280125  RH  098%=      5-min Rain = 0
KMC4 241454Z 32008KT 13/13 A3003 RMK A01 T01280125  RH  098%=      5-min Rain = 0
KMC4 241455Z 32008KT 13/13 A3003 RMK A01 T01280125  RH  098%=      5-min Rain = 0.01
KMC4 241456Z 31008KT 13/13 A3003 RMK A01 T01290125  RH  098%=      5-min Rain = 0
KMC4 241457Z 32008KT 13/13 A3003 RMK A01 T01280125  RH  098%=      5-min Rain = 0
KMC4 241458Z 32007KT 13/13 A3003 RMK A01 T01280125  RH  098%=      5-min Rain = 0
KMC4 241459Z 32007KT 13/13 A3003 RMK A01 T01280125  RH  098%=      5-min Rain = 0
KMC4 241500Z 32006KT 13/13 A3003 RMK A01 T01280125  RH  098%=      5-min Rain = 0
KMC4 241501Z 33006KT 13/13 A3003 RMK A01 T01280125  RH  098%=      5-min Rain = 0
KMC4 241502Z 33009KT 13/13 A3003 RMK A01 T01280125  RH  098%=      5-min Rain = 0
KMC4 241503Z 32007KT 13/13 A3003 RMK A01 T01280125  RH  098%=      5-min Rain = 0.01
KMC4 241504Z 32008KT 13/13 A3003 RMK A01 T01280125  RH  098%=      5-min Rain = 0
KMC4 241505Z 32007KT 13/13 A3004 RMK A01 T01280125  RH  098%=      5-min Rain = 0
KMC4 241506Z 32009KT 13/13 A3004 RMK A01 T01280125  RH  098%=      5-min Rain = 0
KMC4 241507Z 32007KT 13/13 A3003 RMK A01 T01280125  RH  098%=      5-min Rain = 0.01
KMC4 241508Z 31006KT 13/13 A3003 RMK A01 T01280125  RH  098%=      5-min Rain = 0
KMC4 241509Z 32007KT 13/13 A3003 RMK A01 T01280125  RH  098%=      5-min Rain = 0
KMC4 241510Z 31005KT 13/13 A3003 RMK A01 T01290125  RH  098%=      5-min Rain = 0.01
KMC4 241511Z 31007KT 13/13 A3003 RMK A01 T01290125  RH  098%=      5-min Rain = 0
KMC4 241512Z 32007KT 13/13 A3004 RMK A01 T01290125  RH  098%=      5-min Rain = 0.01
KMC4 241513Z 32008KT 13/13 A3004 RMK A01 T01290125  RH  098%=      5-min Rain = 0
KMC4 241514Z 32009KT 13/13 A3004 RMK A01 T01290125  RH  098%=      5-min Rain = 0.01
KMC4 241515Z 32007KT 13/13 A3004 RMK A01 T01290125  RH  097%=      5-min Rain = 0
KMC4 241516Z 32008KT 13/13 A3004 RMK A01 T01290125  RH  097%=      5-min Rain = 0
KMC4 241517Z 32006KT 13/13 A3004 RMK A01 T01290125  RH  097%=      5-min Rain = 0.01
KMC4 241518Z 32006KT 13/13 A3004 RMK A01 T01290125  RH  097%=      5-min Rain = 0
KMC4 241519Z 32006KT 13/13 A3004 RMK A01 T01290125  RH  097%=      5-min Rain = 0.01
KMC4 241520Z 32006KT 13/13 A3004 RMK A01 T01290125  RH  097%=      5-min Rain = 0.01
KMC4 241521Z 31005KT 13/13 A3004 RMK A01 T01290125  RH  097%=      5-min Rain = 0
KMC4 241522Z 32007KT 13/13 A3004 RMK A01 T01290125  RH  097%=      5-min Rain = 0.01
KMC4 241523Z 32005KT 13/13 A3004 RMK A01 T01290125  RH  097%=      5-min Rain = 0.01
KMC4 241524Z 32005KT 13/13 A3004 RMK A01 T01290125  RH  097%=      5-min Rain = 0
KMC4 241525Z 32004KT 13/13 A3004 RMK A01 T01290125  RH  097%=      5-min Rain = 0.01
KMC4 241526Z 32005KT 13/13 A3004 RMK A01 T01290125  RH  097%=      5-min Rain = 0
KMC4 241527Z 32006KT 13/13 A3004 RMK A01 T01290125  RH  097%=      5-min Rain = 0.01
KMC4 241528Z 32005KT 13/13 A3004 RMK A01 T01290125  RH  097%=      5-min Rain = 0
KMC4 241529Z 32004KT 13/13 A3004 RMK A01 T01290125  RH  097%=      5-min Rain = 0
KMC4 241530Z 32004KT 13/13 A3004 RMK A01 T01290125  RH  097%=      5-min Rain = 0
KMC4 241531Z 32004KT 13/13 A3004 RMK A01 T01290125  RH  097%=      5-min Rain = 0.01
KMC4 241532Z 33004KT 13/13 A3004 RMK A01 T01290125  RH  097%=      5-min Rain = 0
KMC4 241533Z 33003KT 13/13 A3004 RMK A01 T01290125  RH  097%=      5-min Rain = 0.01
KMC4 241534Z 35002KT 13/13 A3004 RMK A01 T01290125  RH  097%=      5-min Rain = 0
KMC4 241535Z 35004KT 13/13 A3004 RMK A01 T01290126  RH  097%=      5-min Rain = 0
KMC4 241536Z 00003KT 13/13 A3003 RMK A01 T01300126  RH  097%=      5-min Rain = 0.01
KMC4 241537Z 01005KT 13/13 A3003 RMK A01 T01300126  RH  097%=      5-min Rain = 0
KMC4 241538Z 01006KT 13/13 A3003 RMK A01 T01290125  RH  097%=      5-min Rain = 0.01
KMC4 241539Z 01006KT 13/13 A3002 RMK A01 T01290125  RH  097%=      5-min Rain = 0.01
KMC4 241540Z 01008KT 13/13 A3002 RMK A01 T01290125  RH  097%=      5-min Rain = 0
KMC4 241541Z 01009KT 13/13 A3001 RMK A01 T01290125  RH  097%=      5-min Rain = 0.01
KMC4 241542Z 01011KT 13/13 A30 RMK A01 T01290125  RH  097%=      5-min Rain = 0
KMC4 241543Z 01012KT 13/13 A2999 RMK A01 T01300125  RH  097%=      5-min Rain = 0
KMC4 241544Z 01014KT 13/13 A2998 RMK A01 T01290125  RH  097%=      5-min Rain = 0
KMC4 241545Z 01016KT 13/13 A2997 RMK A01 T01290125  RH  097%=      5-min Rain = 0
KMC4 241546Z 00016KT 13/13 A2997 RMK A01 T01290125  RH  097%=      5-min Rain = 0.01
KMC4 241547Z 00015KT 13/12 A2996 RMK A01 T01300124  RH  097%=      5-min Rain = 0
KMC4 241548Z 00015G20KT 13/12 A2996 RMK A01 T01290124  RH  096%=      5-min Rain = 0
KMC4 241549Z 01015G20KT 13/12 A2996 RMK A01 T01300124  RH  096%=      5-min Rain = 0.01
KMC4 241550Z 01014G19KT 13/12 A2997 RMK A01 T01300124  RH  096%=      5-min Rain = 0
KMC4 241551Z 00011KT 13/12 A2998 RMK A01 T01300123  RH  096%=      5-min Rain = 0
KMC4 241552Z 01009KT 13/12 A2998 RMK A01 T01310123  RH  095%=      5-min Rain = 0.01
KMC4 241553Z 00008KT 13/12 A2999 RMK A01 T01310124  RH  095%=      5-min Rain = 0
KMC4 241554Z 00007G12KT 13/12 A2999 RMK A01 T01310123  RH  095%=      5-min Rain = 0
KMC4 241555Z 36009KT 13/12 A2999 RMK A01 T01310124  RH  095%=      5-min Rain = 0
KMC4 241556Z 36006KT 13/12 A30 RMK A01 T01310123  RH  095%=      5-min Rain = 0.01
KMC4 241557Z 35007KT 13/12 A30 RMK A01 T01310123  RH  095%=      5-min Rain = 0
KMC4 241558Z 35009KT 13/12 A30 RMK A01 T01310123  RH  095%=      5-min Rain = 0
KMC4 241559Z 35007KT 13/12 A30 RMK A01 T01310123  RH  095%=      5-min Rain = 0
KMC4 241600Z 34007KT 13/12 A30 RMK A01 T01320123  RH  094%=      5-min Rain = 0
KMC4 241601Z 34008KT 13/12 A30 RMK A01 T01320123  RH  094%=      5-min Rain = 0
KMC4 241602Z 35009KT 13/12 A30 RMK A01 T01320122  RH  094%=      5-min Rain = 0
KMC4 241603Z 34007KT 13/12 A3001 RMK A01 T01320122  RH  094%=      5-min Rain = 0.01
KMC4 241604Z 33007KT 13/12 A3001 RMK A01 T01330123  RH  094%=      5-min Rain = 0
KMC4 241605Z 32007KT 13/12 A3001 RMK A01 T01330123  RH  094%=      5-min Rain = 0
KMC4 241606Z 32007KT 13/12 A3002 RMK A01 T01330123  RH  094%=      5-min Rain = 0
KMC4 241607Z 31006KT 13/12 A3002 RMK A01 T01330123  RH  094%=      5-min Rain = 0
KMC4 241608Z 32007KT 13/12 A3002 RMK A01 T01330123  RH  094%=      5-min Rain = 0
KMC4 241609Z 32006KT 13/12 A3002 RMK A01 T01330123  RH  094%=      5-min Rain = 0
KMC4 241610Z 31006KT 13/12 A3003 RMK A01 T01330123  RH  094%=      5-min Rain = 0
KMC4 241611Z 31005KT 13/12 A3003 RMK A01 T01330123  RH  094%=      5-min Rain = 0
KMC4 241612Z 30005KT 13/12 A3003 RMK A01 T01320122  RH  094%=      5-min Rain = 0
KMC4 241613Z 31005KT 13/12 A3003 RMK A01 T01320122  RH  094%=      5-min Rain = 0
KMC4 241614Z 30004KT 13/12 A3003 RMK A01 T01320123  RH  094%=      5-min Rain = 0
KMC4 241615Z 31003KT 13/12 A3003 RMK A01 T01330123  RH  094%=      5-min Rain = 0
KMC4 241616Z 31004KT 13/12 A3003 RMK A01 T01330123  RH  094%=      5-min Rain = 0
KMC4 241617Z 31004KT 13/12 A3003 RMK A01 T01330123  RH  094%=      5-min Rain = 0
KMC4 241618Z 31004KT 13/12 A3003 RMK A01 T01330123  RH  094%=      5-min Rain = 0
KMC4 241619Z 32003KT 13/12 A3003 RMK A01 T01330123  RH  094%=      5-min Rain = 0
KMC4 241620Z 33004KT 13/12 A3003 RMK A01 T01330124  RH  094%=      5-min Rain = 0
KMC4 241621Z 34004KT 13/12 A3003 RMK A01 T01330124  RH  094%=      5-min Rain = 0
KMC4 241622Z 35004KT 13/12 A3003 RMK A01 T01330123  RH  094%=      5-min Rain = 0
KMC4 241623Z 00004KT 13/12 A3003 RMK A01 T01330123  RH  094%=      5-min Rain = 0
KMC4 241624Z 01004KT 13/12 A3002 RMK A01 T01330123  RH  093%=      5-min Rain = 0.01
KMC4 241625Z 01005KT 13/12 A3002 RMK A01 T01340124  RH  094%=      5-min Rain = 0
KMC4 241626Z 01006KT 13/12 A3002 RMK A01 T01340123  RH  093%=      5-min Rain = 0
KMC4 241627Z 01006KT 13/12 A3002 RMK A01 T01340123  RH  093%=      5-min Rain = 0
KMC4 241628Z 01006KT 13/12 A3002 RMK A01 T01340122  RH  093%=      5-min Rain = 0
KMC4 241629Z 01006KT 13/12 A3002 RMK A01 T01340122  RH  092%=      5-min Rain = 0
KMC4 241630Z 01007KT 14/12 A3002 RMK A01 T01350122  RH  092%=      5-min Rain = 0.01
KMC4 241631Z 01007KT 14/12 A3001 RMK A01 T01350122  RH  092%=      5-min Rain = 0
KMC4 241632Z 02008KT 14/12 A3001 RMK A01 T01350122  RH  092%=      5-min Rain = 0.01
KMC4 241633Z 02009KT 14/12 A3001 RMK A01 T01350123  RH  092%=      5-min Rain = 0
KMC4 241634Z 03008KT 14/12 A3001 RMK A01 T01350123  RH  093%=      5-min Rain = 0
KMC4 241635Z 03007KT 14/12 A3001 RMK A01 T01350124  RH  093%=      5-min Rain = 0.01
KMC4 241636Z 03006KT 13/12 A3001 RMK A01 T01340123  RH  093%=      5-min Rain = 0
KMC4 241637Z 04006KT 13/12 A3001 RMK A01 T01340123  RH  093%=      5-min Rain = 0
KMC4 241638Z 04003KT 13/12 A3001 RMK A01 T01340122  RH  093%=      5-min Rain = 0.01
KMC4 241639Z 05003KT 13/12 A3001 RMK A01 T01340123  RH  093%=      5-min Rain = 0
KMC4 241640Z 10000KT 13/12 A3001 RMK A01 T01330122  RH  093%=      5-min Rain = 0
KMC4 241641Z 34000KT 13/12 A3001 RMK A01 T01330122  RH  093%=      5-min Rain = 0.01
KMC4 241642Z 28002KT 13/12 A3001 RMK A01 T01330122  RH  093%=      5-min Rain = 0
KMC4 241643Z 32003KT 13/12 A3002 RMK A01 T01330122  RH  093%=      5-min Rain = 0
KMC4 241644Z 25003KT 13/12 A3002 RMK A01 T01330122  RH  093%=      5-min Rain = 0
KMC4 241645Z 20002KT 13/12 A3003 RMK A01 T01330123  RH  093%=      5-min Rain = 0
KMC4 241646Z 30002KT 13/12 A3003 RMK A01 T01340123  RH  093%=      5-min Rain = 0.01
KMC4 241647Z 25005G12KT 13/12 A3004 RMK A01 T01340122  RH  093%=      5-min Rain = 0
KMC4 241648Z 23012KT 13/12 A3004 RMK A01 T01340122  RH  093%=      5-min Rain = 0
KMC4 241649Z 23012KT 14/12 A3004 RMK A01 T01350123  RH  093%=      5-min Rain = 0
KMC4 241650Z 23012KT 14/12 A3004 RMK A01 T01350124  RH  093%=      5-min Rain = 0.01
KMC4 241651Z 23011KT 14/12 A3004 RMK A01 T01350124  RH  093%=      5-min Rain = 0
KMC4 241652Z 23009KT 14/12 A3005 RMK A01 T01350124  RH  093%=      5-min Rain = 0
KMC4 241653Z 23008KT 14/12 A3005 RMK A01 T01350123  RH  092%=      5-min Rain = 0
KMC4 241654Z 26007KT 14/12 A3004 RMK A01 T01350122  RH  092%=      5-min Rain = 0
KMC4 241655Z 25005KT 14/12 A3004 RMK A01 T01360117  RH  088%=      5-min Rain = 0.01
KMC4 241656Z 28003KT 14/12 A3004 RMK A01 T01380115  RH  086%=      5-min Rain = 0
KMC4 241657Z 25003KT 14/12 A3004 RMK A01 T01380116  RH  086%=      5-min Rain = 0
KMC4 241658Z 25004KT 14/12 A3004 RMK A01 T01390117  RH  087%=      5-min Rain = 0
KMC4 241659Z 25003KT 14/12 A3004 RMK A01 T01390120  RH  088%=      5-min Rain = 0
KMC4 241700Z 25002KT 14/12 A3004 RMK A01 T01380121  RH  089%=      5-min Rain = 0
KMC4 241701Z 24002KT 14/12 A3004 RMK A01 T01370121  RH  090%=      5-min Rain = 0
KMC4 241702Z 26001KT 14/12 A3004 RMK A01 T01360121  RH  090%=      5-min Rain = 0
KMC4 241703Z 26001KT 14/12 A3004 RMK A01 T01360121  RH  090%=      5-min Rain = 0
KMC4 241704Z 26000KT 14/12 A3003 RMK A01 T01360120  RH  090%=      5-min Rain = 0
KMC4 241705Z 34001KT 14/12 A3003 RMK A01 T01360120  RH  090%=      5-min Rain = 0
KMC4 241706Z 33000KT 14/12 A3003 RMK A01 T01360119  RH  090%=      5-min Rain = 0
KMC4 241707Z 34001KT 14/12 A3003 RMK A01 T01360118  RH  089%=      5-min Rain = 0
KMC4 241708Z 02002KT 14/12 A3002 RMK A01 T01360118  RH  089%=      5-min Rain = 0
KMC4 241709Z 03003KT 14/12 A3002 RMK A01 T01370121  RH  090%=      5-min Rain = 0
KMC4 241710Z 02004KT 14/12 A3002 RMK A01 T01370121  RH  090%=      5-min Rain = 0
KMC4 241711Z 02004KT 14/12 A3002 RMK A01 T01380122  RH  090%=      5-min Rain = 0.01
KMC4 241712Z 03004KT 14/12 A3002 RMK A01 T01380121  RH  090%=      5-min Rain = 0
KMC4 241713Z 03004KT 14/12 A3001 RMK A01 T01380122  RH  090%=      5-min Rain = 0
KMC4 241714Z 04004KT 14/12 A3001 RMK A01 T01380124  RH  091%=      5-min Rain = 0
KMC4 241715Z 04005KT 14/13 A3001 RMK A01 T01380125  RH  092%=      5-min Rain = 0.01
KMC4 241716Z 04007KT 14/12 A30 RMK A01 T01370124  RH  092%=      5-min Rain = 0
KMC4 241717Z 04007KT 14/13 A30 RMK A01 T01370125  RH  092%=      5-min Rain = 0
KMC4 241718Z 05007KT 14/13 A30 RMK A01 T01370125  RH  092%=      5-min Rain = 0
KMC4 241719Z 05008KT 14/13 A2999 RMK A01 T01370125  RH  092%=      5-min Rain = 0
KMC4 241720Z 05008KT 14/13 A2999 RMK A01 T01370125  RH  092%=      5-min Rain = 0.01
KMC4 241721Z 05009KT 14/13 A2999 RMK A01 T01370125  RH  092%=      5-min Rain = 0
KMC4 241722Z 05009KT 14/12 A2998 RMK A01 T01360124  RH  092%=      5-min Rain = 0
KMC4 241723Z 05009KT 14/12 A2998 RMK A01 T01360123  RH  092%=      5-min Rain = 0
KMC4 241724Z 05008KT 14/12 A2998 RMK A01 T01370123  RH  091%=      5-min Rain = 0
KMC4 241725Z 05009KT 14/12 A2998 RMK A01 T01370122  RH  091%=      5-min Rain = 0
KMC4 241726Z 05007KT 14/12 A2998 RMK A01 T01370122  RH  090%=      5-min Rain = 0
KMC4 241727Z 04008KT 14/12 A2998 RMK A01 T01370120  RH  090%=      5-min Rain = 0
KMC4 241728Z 04008KT 14/12 A2998 RMK A01 T01380119  RH  088%=      5-min Rain = 0
KMC4 241729Z 04008KT 14/12 A2998 RMK A01 T01380118  RH  088%=      5-min Rain = 0
KMC4 241730Z 05008KT 14/12 A2998 RMK A01 T01390118  RH  087%=      5-min Rain = 0
KMC4 241731Z 05008G13KT 14/12 A2997 RMK A01 T01400119  RH  087%=      5-min Rain = 0
KMC4 241732Z 05010KT 14/12 A2997 RMK A01 T01400117  RH  086%=      5-min Rain = 0
KMC4 241733Z 05010KT 14/12 A2997 RMK A01 T01400115  RH  085%=      5-min Rain = 0
KMC4 241734Z 05008KT 14/11 A2997 RMK A01 T01400113  RH  084%=      5-min Rain = 0
KMC4 241735Z 06008KT 14/11 A2997 RMK A01 T01400113  RH  084%=      5-min Rain = 0
KMC4 241736Z 06007KT 14/11 A2997 RMK A01 T01410114  RH  084%=      5-min Rain = 0
KMC4 241737Z 05009KT 14/11 A2997 RMK A01 T01410114  RH  084%=      5-min Rain = 0
KMC4 241738Z 05006KT 14/11 A2997 RMK A01 T01410113  RH  084%=      5-min Rain = 0
KMC4 241739Z 05007KT 14/12 A2997 RMK A01 T01400115  RH  084%=      5-min Rain = 0
KMC4 241740Z 05006KT 14/11 A2997 RMK A01 T01410114  RH  084%=      5-min Rain = 0
KMC4 241741Z 05005KT 14/11 A2997 RMK A01 T01410114  RH  084%=      5-min Rain = 0
KMC4 241742Z 04006KT 14/11 A2997 RMK A01 T01400114  RH  084%=      5-min Rain = 0
KMC4 241743Z 04006KT 14/11 A2997 RMK A01 T01410114  RH  084%=      5-min Rain = 0
KMC4 241744Z 04006KT 14/11 A2997 RMK A01 T01410114  RH  084%=      5-min Rain = 0
KMC4 241745Z 04006KT 14/12 A2997 RMK A01 T01410116  RH  085%=      5-min Rain = 0
KMC4 241746Z 05006KT 14/11 A2997 RMK A01 T01410114  RH  084%=      5-min Rain = 0
KMC4 241747Z 04005KT 14/11 A2997 RMK A01 T01410112  RH  082%=      5-min Rain = 0
KMC4 241748Z 04005KT 14/11 A2998 RMK A01 T01410113  RH  083%=      5-min Rain = 0
KMC4 241749Z 03005KT 14/11 A2998 RMK A01 T01420112  RH  082%=      5-min Rain = 0
KMC4 241750Z 35003KT 14/11 A2998 RMK A01 T01420110  RH  081%=      5-min Rain = 0
KMC4 241751Z 32002KT 14/11 A2998 RMK A01 T01420112  RH  082%=      5-min Rain = 0
KMC4 241752Z 28004KT 14/11 A2999 RMK A01 T01420110  RH  081%=      5-min Rain = 0
KMC4 241753Z 26005KT 14/11 A2999 RMK A01 T01430114  RH  083%=      5-min Rain = 0
KMC4 241754Z 25006KT 14/11 A30 RMK A01 T01430114  RH  083%=      5-min Rain = 0
KMC4 241755Z 25007KT 14/12 A30 RMK A01 T01430116  RH  083%=      5-min Rain = 0
KMC4 241756Z 25006KT 14/12 A30 RMK A01 T01430118  RH  085%=      5-min Rain = 0
KMC4 241757Z 24006KT 14/12 A30 RMK A01 T01440118  RH  085%=      5-min Rain = 0
KMC4 241758Z 24005KT 14/12 A30 RMK A01 T01430118  RH  085%=      5-min Rain = 0
KMC4 241759Z 24005KT 14/12 A30 RMK A01 T01430116  RH  084%=      5-min Rain = 0
KMC4 241800Z 24004KT 14/12 A30 RMK A01 T01430117  RH  085%=      5-min Rain = 0
KMC4 241801Z 25004KT 14/12 A30 RMK A01 T01430123  RH  088%=      5-min Rain = 0
KMC4 241802Z 25004KT 14/12 A30 RMK A01 T01430118  RH  085%=      5-min Rain = 0
KMC4 241803Z 24003KT 14/12 A30 RMK A01 T01430116  RH  084%=      5-min Rain = 0
KMC4 241804Z 23002KT 14/11 A30 RMK A01 T01430112  RH  082%=      5-min Rain = 0
KMC4 241805Z 22002KT 14/12 A30 RMK A01 T01440115  RH  083%=      5-min Rain = 0
KMC4 241806Z 21003KT 14/12 A30 RMK A01 T01440115  RH  083%=      5-min Rain = 0
KMC4 241807Z 20003KT 14/11 A30 RMK A01 T01440114  RH  082%=      5-min Rain = 0
KMC4 241808Z 19003KT 14/12 A30 RMK A01 T01440115  RH  082%=      5-min Rain = 0
KMC4 241809Z 19004KT 15/11 A30 RMK A01 T01450114  RH  082%=      5-min Rain = 0
KMC4 241810Z 19004KT 15/11 A30 RMK A01 T01450113  RH  081%=      5-min Rain = 0
KMC4 241811Z 18005KT 15/12 A30 RMK A01 T01450116  RH  083%=      5-min Rain = 0
KMC4 241812Z 19005KT 15/12 A30 RMK A01 T01450117  RH  083%=      5-min Rain = 0
KMC4 241813Z 19006KT 15/12 A30 RMK A01 T01450117  RH  083%=      5-min Rain = 0
KMC4 241814Z 19007KT 15/12 A30 RMK A01 T01450118  RH  084%=      5-min Rain = 0
KMC4 241815Z 19006KT 15/12 A30 RMK A01 T01450121  RH  086%=      5-min Rain = 0
KMC4 241816Z 18005KT 15/12 A30 RMK A01 T01450124  RH  087%=      5-min Rain = 0
KMC4 241817Z 18006KT 14/13 A2999 RMK A01 T01440126  RH  089%=      5-min Rain = 0
KMC4 241818Z 17006KT 14/13 A2999 RMK A01 T01440126  RH  089%=      5-min Rain = 0
KMC4 241819Z 16005KT 14/13 A2999 RMK A01 T01430126  RH  089%=      5-min Rain = 0
KMC4 241820Z 17006KT 14/13 A2999 RMK A01 T01430125  RH  089%=      5-min Rain = 0
KMC4 241821Z 17005KT 14/12 A2999 RMK A01 T01430124  RH  089%=      5-min Rain = 0
KMC4 241822Z 18005KT 14/12 A2999 RMK A01 T01430124  RH  088%=      5-min Rain = 0
KMC4 241823Z 18004KT 14/12 A2999 RMK A01 T01430124  RH  088%=      5-min Rain = 0
KMC4 241824Z 19004KT 14/12 A2999 RMK A01 T01430124  RH  089%=      5-min Rain = 0
KMC4 241825Z 20003KT 14/13 A2999 RMK A01 T01430126  RH  089%=      5-min Rain = 0
KMC4 241826Z 20003KT 14/13 A2999 RMK A01 T01440128  RH  090%=      5-min Rain = 0
KMC4 241827Z 20003KT 14/13 A2998 RMK A01 T01440127  RH  090%=      5-min Rain = 0
KMC4 241828Z 18001KT 14/12 A2998 RMK A01 T01430124  RH  088%=      5-min Rain = 0
KMC4 241829Z 19000KT 14/12 A2998 RMK A01 T01430123  RH  087%=      5-min Rain = 0
KMC4 241830Z 12000KT 14/12 A2997 RMK A01 T01440124  RH  088%=      5-min Rain = 0
KMC4 241831Z 05001KT 14/13 A2997 RMK A01 T01440125  RH  088%=      5-min Rain = 0
KMC4 241832Z 05001KT 14/13 A2997 RMK A01 T01440125  RH  088%=      5-min Rain = 0
KMC4 241833Z 05002KT 15/12 A2996 RMK A01 T01450124  RH  087%=      5-min Rain = 0
KMC4 241834Z 05003KT 14/12 A2996 RMK A01 T01440123  RH  087%=      5-min Rain = 0
KMC4 241835Z 04004KT 14/12 A2996 RMK A01 T01440123  RH  087%=      5-min Rain = 0
KMC4 241836Z 05004KT 14/12 A2995 RMK A01 T01440122  RH  086%=      5-min Rain = 0
KMC4 241837Z 06004KT 14/12 A2995 RMK A01 T01440122  RH  086%=      5-min Rain = 0
KMC4 241838Z 06004KT 14/12 A2995 RMK A01 T01440122  RH  087%=      5-min Rain = 0
KMC4 241839Z 06005KT 15/12 A2994 RMK A01 T01450122  RH  086%=      5-min Rain = 0
KMC4 241840Z 05004KT 15/12 A2994 RMK A01 T01450120  RH  085%=      5-min Rain = 0
KMC4 241841Z 05004KT 15/12 A2994 RMK A01 T01450120  RH  085%=      5-min Rain = 0
KMC4 241842Z 05005KT 15/12 A2994 RMK A01 T01450120  RH  085%=      5-min Rain = 0
KMC4 241843Z 05006KT 15/12 A2993 RMK A01 T01450120  RH  085%=      5-min Rain = 0
KMC4 241844Z 04007KT 15/12 A2993 RMK A01 T01450122  RH  086%=      5-min Rain = 0
KMC4 241845Z 04008KT 15/12 A2993 RMK A01 T01450122  RH  086%=      5-min Rain = 0
KMC4 241846Z 04008KT 15/12 A2993 RMK A01 T01450122  RH  086%=      5-min Rain = 0
KMC4 241847Z 04008KT 15/12 A2992 RMK A01 T01450124  RH  087%=      5-min Rain = 0
KMC4 241848Z 04009KT 15/12 A2992 RMK A01 T01450124  RH  087%=      5-min Rain = 0
KMC4 241849Z 04007KT 15/13 A2992 RMK A01 T01460125  RH  087%=      5-min Rain = 0
KMC4 241850Z 03009KT 15/13 A2992 RMK A01 T01460126  RH  088%=      5-min Rain = 0
KMC4 241851Z 03009KT 15/12 A2991 RMK A01 T01460124  RH  087%=      5-min Rain = 0
KMC4 241852Z 03009KT 15/12 A2991 RMK A01 T01460124  RH  087%=      5-min Rain = 0
KMC4 241853Z 02008KT 15/12 A2991 RMK A01 T01460123  RH  086%=      5-min Rain = 0
KMC4 241854Z 03006KT 15/12 A2991 RMK A01 T01460123  RH  086%=      5-min Rain = 0
KMC4 241855Z 03007KT 15/12 A2991 RMK A01 T01470124  RH  086%=      5-min Rain = 0
KMC4 241856Z 03008KT 15/12 A2991 RMK A01 T01470122  RH  085%=      5-min Rain = 0
KMC4 241857Z 04006KT 15/12 A2991 RMK A01 T01470120  RH  084%=      5-min Rain = 0
KMC4 241858Z 04005KT 15/12 A2991 RMK A01 T01480121  RH  084%=      5-min Rain = 0
KMC4 241859Z 03005KT 15/12 A2992 RMK A01 T01490122  RH  084%=      5-min Rain = 0
KMC4 241900Z 03005KT 15/12 A2992 RMK A01 T01500121  RH  083%=      5-min Rain = 0
KMC4 241901Z 04003KT 15/12 A2992 RMK A01 T01510121  RH  082%=      5-min Rain = 0
KMC4 241902Z 04002KT 15/12 A2992 RMK A01 T01520120  RH  081%=      5-min Rain = 0
KMC4 241903Z 15000KT 15/12 A2993 RMK A01 T01520119  RH  081%=      5-min Rain = 0
KMC4 241904Z 21002KT 15/12 A2993 RMK A01 T01530118  RH  080%=      5-min Rain = 0
KMC4 241905Z 20005KT 15/12 A2994 RMK A01 T01540119  RH  080%=      5-min Rain = 0
KMC4 241906Z 20006KT 15/12 A2994 RMK A01 T01540124  RH  082%=      5-min Rain = 0
KMC4 241907Z 21008KT 16/13 A2994 RMK A01 T01560130  RH  085%=      5-min Rain = 0
KMC4 241908Z 21008KT 16/13 A2995 RMK A01 T01560126  RH  082%=      5-min Rain = 0
KMC4 241909Z 22009KT 16/13 A2995 RMK A01 T01550125  RH  082%=      5-min Rain = 0
KMC4 241910Z 24009KT 16/13 A2995 RMK A01 T01550129  RH  085%=      5-min Rain = 0
KMC4 241911Z 25009KT 16/13 A2995 RMK A01 T01560131  RH  085%=      5-min Rain = 0
KMC4 241912Z 23008KT 16/13 A2995 RMK A01 T01570132  RH  085%=      5-min Rain = 0
KMC4 241913Z 24007KT 16/13 A2995 RMK A01 T01580130  RH  083%=      5-min Rain = 0
KMC4 241914Z 26008KT 16/13 A2995 RMK A01 T01590130  RH  083%=      5-min Rain = 0
KMC4 241915Z 27008KT 16/13 A2995 RMK A01 T01590125  RH  080%=      5-min Rain = 0
KMC4 241916Z 26007KT 16/12 A2995 RMK A01 T01590120  RH  077%=      5-min Rain = 0
KMC4 241917Z 26006KT 16/12 A2995 RMK A01 T01590121  RH  078%=      5-min Rain = 0
KMC4 241918Z 26008KT 16/13 A2995 RMK A01 T01590127  RH  081%=      5-min Rain = 0
KMC4 241919Z 26007KT 16/13 A2995 RMK A01 T01600129  RH  082%=      5-min Rain = 0
KMC4 241920Z 26007KT 16/13 A2994 RMK A01 T01600129  RH  082%=      5-min Rain = 0
KMC4 241921Z 26005KT 16/13 A2994 RMK A01 T01590125  RH  080%=      5-min Rain = 0
KMC4 241922Z 26004KT 16/12 A2994 RMK A01 T01580123  RH  080%=      5-min Rain = 0
KMC4 241923Z 26003KT 16/12 A2993 RMK A01 T01570122  RH  079%=      5-min Rain = 0
KMC4 241924Z 25004KT 16/13 A2993 RMK A01 T01570126  RH  081%=      5-min Rain = 0
KMC4 241925Z 23002KT 16/13 A2993 RMK A01 T01580128  RH  082%=      5-min Rain = 0
KMC4 241926Z 24001KT 16/13 A2993 RMK A01 T01590128  RH  082%=      5-min Rain = 0
KMC4 241927Z 23002KT 16/12 A2992 RMK A01 T01590124  RH  079%=      5-min Rain = 0
KMC4 241928Z 24002KT 16/12 A2992 RMK A01 T01600120  RH  077%=      5-min Rain = 0
KMC4 241929Z 22002KT 16/12 A2992 RMK A01 T01590123  RH  079%=      5-min Rain = 0
KMC4 241930Z 25004KT 16/13 A2992 RMK A01 T01590125  RH  080%=      5-min Rain = 0
KMC4 241931Z 29003KT 16/13 A2992 RMK A01 T01590126  RH  081%=      5-min Rain = 0
KMC4 241932Z 27004KT 16/13 A2992 RMK A01 T01590127  RH  081%=      5-min Rain = 0
KMC4 241933Z 27007KT 16/13 A2993 RMK A01 T01590130  RH  083%=      5-min Rain = 0
KMC4 241934Z 27008KT 16/13 A2993 RMK A01 T01600130  RH  082%=      5-min Rain = 0
KMC4 241935Z 26010KT 16/13 A2993 RMK A01 T01600133  RH  084%=      5-min Rain = 0
KMC4 241936Z 26011KT 16/13 A2994 RMK A01 T01600132  RH  083%=      5-min Rain = 0
KMC4 241937Z 26010KT 16/13 A2994 RMK A01 T01590133  RH  084%=      5-min Rain = 0
KMC4 241938Z 27009KT 16/13 A2993 RMK A01 T01590132  RH  084%=      5-min Rain = 0
KMC4 241939Z 28008KT 16/13 A2993 RMK A01 T01580128  RH  082%=      5-min Rain = 0
KMC4 241940Z 27007KT 16/13 A2993 RMK A01 T01570129  RH  083%=      5-min Rain = 0
KMC4 241941Z 27008KT 16/13 A2993 RMK A01 T01570131  RH  084%=      5-min Rain = 0
KMC4 241942Z 28009KT 16/13 A2993 RMK A01 T01580134  RH  085%=      5-min Rain = 0
KMC4 241943Z 28008KT 16/13 A2993 RMK A01 T01590132  RH  084%=      5-min Rain = 0
KMC4 241944Z 28009KT 16/13 A2993 RMK A01 T01590131  RH  084%=      5-min Rain = 0
KMC4 241945Z 28010KT 16/13 A2993 RMK A01 T01590130  RH  083%=      5-min Rain = 0
KMC4 241946Z 29008KT 16/13 A2993 RMK A01 T01590129  RH  083%=      5-min Rain = 0
KMC4 241947Z 28007KT 16/13 A2993 RMK A01 T01590129  RH  083%=      5-min Rain = 0
KMC4 241948Z 28007KT 16/13 A2993 RMK A01 T01590127  RH  082%=      5-min Rain = 0
KMC4 241949Z 28008KT 16/13 A2993 RMK A01 T01590132  RH  084%=      5-min Rain = 0
KMC4 241950Z 29007KT 16/13 A2993 RMK A01 T01600131  RH  083%=      5-min Rain = 0
KMC4 241951Z 28009KT 16/13 A2993 RMK A01 T01600131  RH  083%=      5-min Rain = 0
KMC4 241952Z 27009KT 16/13 A2993 RMK A01 T01600133  RH  084%=      5-min Rain = 0
KMC4 241953Z 27009KT 16/13 A2993 RMK A01 T01600133  RH  084%=      5-min Rain = 0
KMC4 241954Z 27008KT 16/13 A2993 RMK A01 T01600131  RH  083%=      5-min Rain = 0
KMC4 241955Z 27008KT 16/13 A2993 RMK A01 T01600131  RH  083%=      5-min Rain = 0
KMC4 241956Z 28009KT 16/13 A2993 RMK A01 T01610130  RH  082%=      5-min Rain = 0
KMC4 241957Z 29008KT 16/13 A2993 RMK A01 T01610130  RH  082%=      5-min Rain = 0
KMC4 241958Z 30008KT 16/13 A2993 RMK A01 T01620129  RH  081%=      5-min Rain = 0
KMC4 241959Z 30009KT 16/13 A2993 RMK A01 T01630129  RH  080%=      5-min Rain = 0
KMC4 242000Z 29009KT 16/13 A2993 RMK A01 T01630127  RH  079%=      5-min Rain = 0
KMC4 242001Z 30009KT 16/13 A2993 RMK A01 T01620125  RH  079%=      5-min Rain = 0
KMC4 242002Z 29009KT 16/13 A2993 RMK A01 T01620126  RH  079%=      5-min Rain = 0
KMC4 242003Z 29007KT 16/13 A2993 RMK A01 T01620125  RH  078%=      5-min Rain = 0
KMC4 242004Z 29009KT 16/13 A2993 RMK A01 T01620128  RH  080%=      5-min Rain = 0
KMC4 242005Z 29009KT 16/12 A2993 RMK A01 T01630124  RH  078%=      5-min Rain = 0
KMC4 242006Z 28008KT 16/12 A2993 RMK A01 T01630124  RH  078%=      5-min Rain = 0
KMC4 242007Z 30007KT 16/13 A2994 RMK A01 T01620127  RH  079%=      5-min Rain = 0
KMC4 242008Z 30006KT 16/13 A2994 RMK A01 T01630126  RH  078%=      5-min Rain = 0
KMC4 242009Z 30007KT 16/13 A2994 RMK A01 T01630127  RH  079%=      5-min Rain = 0
KMC4 242010Z 27007KT 16/13 A2994 RMK A01 T01630131  RH  081%=      5-min Rain = 0
KMC4 242011Z 26008KT 16/13 A2994 RMK A01 T01640130  RH  080%=      5-min Rain = 0
KMC4 242012Z 28009KT 16/13 A2994 RMK A01 T01640129  RH  080%=      5-min Rain = 0
KMC4 242013Z 28010KT 16/13 A2994 RMK A01 T01640129  RH  080%=      5-min Rain = 0
KMC4 242014Z 28008KT 16/13 A2994 RMK A01 T01640125  RH  078%=      5-min Rain = 0
KMC4 242015Z 31007KT 16/13 A2994 RMK A01 T01630127  RH  079%=      5-min Rain = 0
KMC4 242016Z 30009KT 16/13 A2994 RMK A01 T01640128  RH  079%=      5-min Rain = 0
KMC4 242017Z 30008KT 17/13 A2994 RMK A01 T01650125  RH  077%=      5-min Rain = 0
KMC4 242018Z 31006KT 17/12 A2994 RMK A01 T01650124  RH  077%=      5-min Rain = 0
KMC4 242019Z 32007KT 16/13 A2994 RMK A01 T01640125  RH  078%=      5-min Rain = 0
KMC4 242020Z 31007KT 17/13 A2994 RMK A01 T01650126  RH  078%=      5-min Rain = 0
KMC4 242021Z 30005KT 17/13 A2994 RMK A01 T01650128  RH  079%=      5-min Rain = 0
KMC4 242022Z 29008KT 17/13 A2994 RMK A01 T01660125  RH  077%=      5-min Rain = 0
KMC4 242023Z 30007KT 17/13 A2994 RMK A01 T01660128  RH  078%=      5-min Rain = 0
KMC4 242024Z 31006KT 17/13 A2994 RMK A01 T01660126  RH  077%=      5-min Rain = 0
KMC4 242025Z 29007KT 17/13 A2994 RMK A01 T01670126  RH  077%=      5-min Rain = 0
KMC4 242026Z 27006KT 17/12 A2994 RMK A01 T01660123  RH  075%=      5-min Rain = 0
KMC4 242027Z 28006KT 17/12 A2994 RMK A01 T01660124  RH  076%=      5-min Rain = 0
KMC4 242028Z 28007KT 17/13 A2994 RMK A01 T01660126  RH  077%=      5-min Rain = 0
KMC4 242029Z 28007KT 17/13 A2994 RMK A01 T01660125  RH  077%=      5-min Rain = 0
KMC4 242030Z 28007KT 17/13 A2994 RMK A01 T01650125  RH  077%=      5-min Rain = 0
KMC4 242031Z 28006KT 17/12 A2994 RMK A01 T01650123  RH  077%=      5-min Rain = 0
KMC4 242032Z 29007KT 17/13 A2994 RMK A01 T01650128  RH  079%=      5-min Rain = 0
KMC4 242033Z 30007KT 17/13 A2994 RMK A01 T01650126  RH  078%=      5-min Rain = 0
KMC4 242034Z 30006KT 17/12 A2994 RMK A01 T01660124  RH  076%=      5-min Rain = 0
KMC4 242035Z 29008KT 17/12 A2994 RMK A01 T01650123  RH  076%=      5-min Rain = 0
KMC4 242036Z 28008KT 17/13 A2994 RMK A01 T01650125  RH  077%=      5-min Rain = 0
KMC4 242037Z 29008KT 17/13 A2994 RMK A01 T01650126  RH  078%=      5-min Rain = 0
KMC4 242038Z 30006KT 17/12 A2994 RMK A01 T01650123  RH  076%=      5-min Rain = 0
KMC4 242039Z 31006KT 17/12 A2994 RMK A01 T01650121  RH  075%=      5-min Rain = 0
KMC4 242040Z 30007KT 16/12 A2994 RMK A01 T01640120  RH  075%=      5-min Rain = 0
KMC4 242041Z 31007KT 16/12 A2994 RMK A01 T01640121  RH  075%=      5-min Rain = 0
KMC4 242042Z 29006KT 16/12 A2994 RMK A01 T01640122  RH  076%=      5-min Rain = 0
KMC4 242043Z 28008KT 17/13 A2994 RMK A01 T01650126  RH  078%=      5-min Rain = 0
KMC4 242044Z 29009KT 17/12 A2994 RMK A01 T01650121  RH  075%=      5-min Rain = 0
KMC4 242045Z 30008KT 17/12 A2994 RMK A01 T01650121  RH  075%=      5-min Rain = 0
KMC4 242046Z 30007KT 17/12 A2994 RMK A01 T01650122  RH  076%=      5-min Rain = 0
KMC4 242047Z 29006KT 17/12 A2994 RMK A01 T01650121  RH  075%=      5-min Rain = 0
KMC4 242048Z 28009KT 17/12 A2994 RMK A01 T01650120  RH  075%=      5-min Rain = 0
KMC4 242049Z 28009KT 17/12 A2994 RMK A01 T01650119  RH  074%=      5-min Rain = 0
KMC4 242050Z 28008KT 17/12 A2994 RMK A01 T01650120  RH  074%=      5-min Rain = 0
KMC4 242051Z 29007KT 17/12 A2994 RMK A01 T01650118  RH  073%=      5-min Rain = 0
KMC4 242052Z 29008KT 17/12 A2994 RMK A01 T01660118  RH  074%=      5-min Rain = 0
KMC4 242053Z 29007KT 17/12 A2994 RMK A01 T01650117  RH  073%=      5-min Rain = 0
KMC4 242054Z 31008KT 17/12 A2994 RMK A01 T01660118  RH  073%=      5-min Rain = 0
KMC4 242055Z 31008KT 17/12 A2994 RMK A01 T01650118  RH  074%=      5-min Rain = 0
KMC4 242056Z 31007KT 17/12 A2994 RMK A01 T01660120  RH  074%=      5-min Rain = 0
KMC4 242057Z 31007KT 17/12 A2994 RMK A01 T01660119  RH  074%=      5-min Rain = 0
KMC4 242058Z 30007KT 17/12 A2994 RMK A01 T01660118  RH  073%=      5-min Rain = 0
KMC4 242059Z 30008KT 17/12 A2994 RMK A01 T01670119  RH  074%=      5-min Rain = 0
KMC4 242100Z 30006KT 17/12 A2994 RMK A01 T01660119  RH  074%=      5-min Rain = 0
KMC4 242101Z 28007KT 17/12 A2994 RMK A01 T01670123  RH  075%=      5-min Rain = 0
KMC4 242102Z 28008KT 17/13 A2994 RMK A01 T01670125  RH  076%=      5-min Rain = 0
KMC4 242103Z 29010KT 17/12 A2994 RMK A01 T01680123  RH  075%=      5-min Rain = 0
KMC4 242104Z 30008KT 17/12 A2994 RMK A01 T01670116  RH  072%=      5-min Rain = 0
KMC4 242105Z 30007KT 17/12 A2994 RMK A01 T01660118  RH  073%=      5-min Rain = 0
KMC4 242106Z 30008KT 17/12 A2994 RMK A01 T01660117  RH  073%=      5-min Rain = 0
KMC4 242107Z 30007KT 17/12 A2994 RMK A01 T01660117  RH  073%=      5-min Rain = 0
KMC4 242108Z 30007KT 17/12 A2994 RMK A01 T01660120  RH  074%=      5-min Rain = 0
KMC4 242109Z 30008KT 17/11 A2994 RMK A01 T01660114  RH  071%=      5-min Rain = 0
KMC4 242110Z 30007KT 17/12 A2994 RMK A01 T01660116  RH  072%=      5-min Rain = 0
KMC4 242111Z 29009KT 17/12 A2994 RMK A01 T01660116  RH  072%=      5-min Rain = 0
KMC4 242112Z 30008KT 17/12 A2994 RMK A01 T01660115  RH  072%=      5-min Rain = 0
KMC4 242113Z 30009KT 17/11 A2994 RMK A01 T01660114  RH  071%=      5-min Rain = 0
KMC4 242114Z 29008KT 17/12 A2994 RMK A01 T01660116  RH  072%=      5-min Rain = 0
KMC4 242115Z 30008KT 17/12 A2994 RMK A01 T01670118  RH  073%=      5-min Rain = 0
KMC4 242116Z 30008KT 17/12 A2994 RMK A01 T01660118  RH  073%=      5-min Rain = 0
KMC4 242117Z 30008KT 17/12 A2994 RMK A01 T01660118  RH  073%=      5-min Rain = 0
KMC4 242118Z 30008KT 17/12 A2994 RMK A01 T01660116  RH  072%=      5-min Rain = 0
KMC4 242119Z 31008KT 17/12 A2994 RMK A01 T01660118  RH  073%=      5-min Rain = 0
KMC4 242120Z 30009KT 17/12 A2994 RMK A01 T01660119  RH  074%=      5-min Rain = 0
KMC4 242121Z 30008KT 17/12 A2994 RMK A01 T01660119  RH  074%=      5-min Rain = 0
KMC4 242122Z 30007KT 17/12 A2994 RMK A01 T01650120  RH  074%=      5-min Rain = 0
KMC4 242123Z 29007KT 17/12 A2994 RMK A01 T01650120  RH  075%=      5-min Rain = 0
KMC4 242124Z 29005KT 17/12 A2994 RMK A01 T01660122  RH  075%=      5-min Rain = 0
KMC4 242125Z 29008KT 17/12 A2994 RMK A01 T01660122  RH  075%=      5-min Rain = 0
KMC4 242126Z 29010KT 17/12 A2994 RMK A01 T01660121  RH  075%=      5-min Rain = 0
KMC4 242127Z 28009KT 17/12 A2994 RMK A01 T01660120  RH  074%=      5-min Rain = 0
KMC4 242128Z 29008KT 17/12 A2994 RMK A01 T01650124  RH  076%=      5-min Rain = 0
KMC4 242129Z 30010KT 17/12 A2994 RMK A01 T01660122  RH  076%=      5-min Rain = 0
KMC4 242130Z 30010KT 17/12 A2994 RMK A01 T01650120  RH  074%=      5-min Rain = 0
KMC4 242131Z 30008KT 16/12 A2994 RMK A01 T01640120  RH  075%=      5-min Rain = 0
KMC4 242132Z 29007KT 16/12 A2994 RMK A01 T01640121  RH  075%=      5-min Rain = 0
KMC4 242133Z 29008KT 16/12 A2994 RMK A01 T01640122  RH  076%=      5-min Rain = 0
KMC4 242134Z 29008KT 16/12 A2994 RMK A01 T01640122  RH  076%=      5-min Rain = 0
KMC4 242135Z 29008KT 16/12 A2994 RMK A01 T01640122  RH  077%=      5-min Rain = 0
KMC4 242136Z 29009KT 16/12 A2994 RMK A01 T01640124  RH  077%=      5-min Rain = 0
KMC4 242137Z 28009KT 16/12 A2994 RMK A01 T01630123  RH  077%=      5-min Rain = 0
KMC4 242138Z 28009KT 16/12 A2994 RMK A01 T01630121  RH  076%=      5-min Rain = 0
KMC4 242139Z 28008KT 16/12 A2994 RMK A01 T01630121  RH  076%=      5-min Rain = 0
KMC4 242140Z 28009KT 16/12 A2994 RMK A01 T01630120  RH  076%=      5-min Rain = 0
KMC4 242141Z 28009KT 16/12 A2994 RMK A01 T01620121  RH  077%=      5-min Rain = 0
KMC4 242142Z 28008KT 16/12 A2994 RMK A01 T01620122  RH  077%=      5-min Rain = 0
KMC4 242143Z 29008KT 16/12 A2994 RMK A01 T01620123  RH  077%=      5-min Rain = 0
KMC4 242144Z 28009KT 16/12 A2994 RMK A01 T01620119  RH  076%=      5-min Rain = 0
KMC4 242145Z 29009KT 16/12 A2994 RMK A01 T01620119  RH  076%=      5-min Rain = 0
KMC4 242146Z 29008KT 16/12 A2994 RMK A01 T01610119  RH  076%=      5-min Rain = 0
KMC4 242147Z 28008KT 16/12 A2994 RMK A01 T01610121  RH  077%=      5-min Rain = 0
KMC4 242148Z 28007KT 16/12 A2994 RMK A01 T01610121  RH  077%=      5-min Rain = 0
KMC4 242149Z 27008KT 16/12 A2994 RMK A01 T01610119  RH  076%=      5-min Rain = 0
KMC4 242150Z 27008KT 16/12 A2994 RMK A01 T01610119  RH  076%=      5-min Rain = 0
KMC4 242151Z 27007KT 16/12 A2994 RMK A01 T01620120  RH  077%=      5-min Rain = 0
KMC4 242152Z 27007KT 16/12 A2994 RMK A01 T01610119  RH  076%=      5-min Rain = 0
KMC4 242153Z 28008KT 16/12 A2994 RMK A01 T01610122  RH  077%=      5-min Rain = 0
KMC4 242154Z 28008KT 16/12 A2994 RMK A01 T01610119  RH  076%=      5-min Rain = 0
KMC4 242155Z 28007KT 16/12 A2994 RMK A01 T01610118  RH  075%=      5-min Rain = 0
KMC4 242156Z 28008KT 16/12 A2994 RMK A01 T01620121  RH  077%=      5-min Rain = 0
KMC4 242157Z 29007KT 16/12 A2994 RMK A01 T01620121  RH  076%=      5-min Rain = 0
KMC4 242158Z 29007KT 16/12 A2994 RMK A01 T01620119  RH  076%=      5-min Rain = 0
KMC4 242159Z 29006KT 16/12 A2994 RMK A01 T01620120  RH  076%=      5-min Rain = 0
KMC4 242200Z 29006KT 16/12 A2994 RMK A01 T01620120  RH  076%=      5-min Rain = 0
KMC4 242201Z 29006KT 16/12 A2994 RMK A01 T01620120  RH  076%=      5-min Rain = 0
KMC4 242202Z 30008KT 16/12 A2994 RMK A01 T01630121  RH  076%=      5-min Rain = 0
KMC4 242203Z 30007KT 16/12 A2994 RMK A01 T01630119  RH  075%=      5-min Rain = 0
KMC4 242204Z 30007KT 16/12 A2994 RMK A01 T01630120  RH  076%=      5-min Rain = 0
KMC4 242205Z 29007KT 16/12 A2994 RMK A01 T01630119  RH  075%=      5-min Rain = 0
KMC4 242206Z 29006KT 16/12 A2994 RMK A01 T01640119  RH  075%=      5-min Rain = 0
KMC4 242207Z 29007KT 16/12 A2994 RMK A01 T01640118  RH  074%=      5-min Rain = 0
KMC4 242208Z 30006KT 16/12 A2994 RMK A01 T01640119  RH  075%=      5-min Rain = 0
KMC4 242209Z 29007KT 16/12 A2994 RMK A01 T01640120  RH  076%=      5-min Rain = 0
KMC4 242210Z 29008KT 16/12 A2994 RMK A01 T01640118  RH  075%=      5-min Rain = 0
KMC4 242211Z 29006KT 16/12 A2994 RMK A01 T01630121  RH  076%=      5-min Rain = 0
KMC4 242212Z 29006KT 16/12 A2994 RMK A01 T01640123  RH  077%=      5-min Rain = 0
KMC4 242213Z 29008KT 16/12 A2994 RMK A01 T01640120  RH  075%=      5-min Rain = 0
KMC4 242214Z 29007KT 16/12 A2994 RMK A01 T01640120  RH  075%=      5-min Rain = 0
KMC4 242215Z 30006KT 16/12 A2994 RMK A01 T01640120  RH  075%=      5-min Rain = 0
KMC4 242216Z 30006KT 16/12 A2994 RMK A01 T01640120  RH  076%=      5-min Rain = 0
KMC4 242217Z 30007KT 16/12 A2994 RMK A01 T01640119  RH  075%=      5-min Rain = 0
KMC4 242218Z 30006KT 16/12 A2994 RMK A01 T01630118  RH  074%=      5-min Rain = 0
KMC4 242219Z 30005KT 16/12 A2994 RMK A01 T01630119  RH  075%=      5-min Rain = 0
KMC4 242220Z 30003KT 16/12 A2994 RMK A01 T01630119  RH  075%=      5-min Rain = 0
KMC4 242221Z 30003KT 16/12 A2994 RMK A01 T01630122  RH  076%=      5-min Rain = 0
KMC4 242222Z 31004KT 16/12 A2994 RMK A01 T01640122  RH  076%=      5-min Rain = 0
KMC4 242223Z 31005KT 16/12 A2994 RMK A01 T01640118  RH  074%=      5-min Rain = 0
KMC4 242224Z 30005KT 16/12 A2994 RMK A01 T01640120  RH  075%=      5-min Rain = 0
KMC4 242225Z 31005KT 16/12 A2994 RMK A01 T01640115  RH  073%=      5-min Rain = 0
KMC4 242226Z 31004KT 16/12 A2994 RMK A01 T01640117  RH  074%=      5-min Rain = 0
KMC4 242227Z 31003KT 17/12 A2994 RMK A01 T01650121  RH  075%=      5-min Rain = 0
KMC4 242228Z 31004KT 17/12 A2994 RMK A01 T01650120  RH  075%=      5-min Rain = 0
KMC4 242229Z 31003KT 17/12 A2994 RMK A01 T01650118  RH  074%=      5-min Rain = 0
KMC4 242230Z 31004KT 17/12 A2994 RMK A01 T01660116  RH  073%=      5-min Rain = 0
KMC4 242231Z 30004KT 17/12 A2994 RMK A01 T01660117  RH  073%=      5-min Rain = 0
KMC4 242232Z 31003KT 17/12 A2994 RMK A01 T01660117  RH  073%=      5-min Rain = 0
KMC4 242233Z 31002KT 17/12 A2994 RMK A01 T01660122  RH  075%=      5-min Rain = 0
KMC4 242234Z 33002KT 17/12 A2994 RMK A01 T01670122  RH  075%=      5-min Rain = 0
KMC4 242235Z 31002KT 17/12 A2994 RMK A01 T01680120  RH  073%=      5-min Rain = 0
KMC4 242236Z 30003KT 17/12 A2993 RMK A01 T01690117  RH  071%=      5-min Rain = 0
KMC4 242237Z 32001KT 17/12 A2993 RMK A01 T01690116  RH  071%=      5-min Rain = 0
KMC4 242238Z 33001KT 17/12 A2993 RMK A01 T01700116  RH  071%=      5-min Rain = 0
KMC4 242239Z 35000KT 17/12 A2993 RMK A01 T01710121  RH  072%=      5-min Rain = 0
KMC4 242240Z 01002KT 17/12 A2993 RMK A01 T01730120  RH  071%=      5-min Rain = 0
KMC4 242241Z 04002KT 17/12 A2993 RMK A01 T01740116  RH  069%=      5-min Rain = 0
KMC4 242242Z 04002KT 17/12 A2993 RMK A01 T01740116  RH  069%=      5-min Rain = 0
KMC4 242243Z 04003KT 17/12 A2993 RMK A01 T01740116  RH  069%=      5-min Rain = 0
KMC4 242244Z 02003KT 17/11 A2993 RMK A01 T01730113  RH  068%=      5-min Rain = 0
KMC4 242245Z 36003KT 17/11 A2993 RMK A01 T01730113  RH  068%=      5-min Rain = 0
KMC4 242246Z 35003KT 17/12 A2993 RMK A01 T01730116  RH  069%=      5-min Rain = 0
KMC4 242247Z 01004KT 17/11 A2993 RMK A01 T01730114  RH  068%=      5-min Rain = 0
KMC4 242248Z 01005KT 17/11 A2993 RMK A01 T01730112  RH  067%=      5-min Rain = 0
KMC4 242249Z 01005KT 17/11 A2993 RMK A01 T01730112  RH  067%=      5-min Rain = 0
KMC4 242250Z 01004KT 17/11 A2993 RMK A01 T01730113  RH  068%=      5-min Rain = 0
KMC4 242251Z 36002KT 17/11 A2993 RMK A01 T01740110  RH  066%=      5-min Rain = 0
KMC4 242252Z 01003KT 17/11 A2993 RMK A01 T01740114  RH  068%=      5-min Rain = 0
KMC4 242253Z 03003KT 18/12 A2993 RMK A01 T01750116  RH  068%=      5-min Rain = 0
KMC4 242254Z 03004KT 18/11 A2993 RMK A01 T01760113  RH  067%=      5-min Rain = 0
KMC4 242255Z 36005KT 18/11 A2993 RMK A01 T01770113  RH  066%=      5-min Rain = 0
KMC4 242256Z 34005KT 18/11 A2993 RMK A01 T01770113  RH  066%=      5-min Rain = 0.01
KMC4 242257Z 34006KT 18/11 A2993 RMK A01 T01780113  RH  066%=      5-min Rain = 0
KMC4 242258Z 34003KT 18/11 A2993 RMK A01 T01790109  RH  064%=      5-min Rain = 0
KMC4 242259Z 36006KT 18/11 A2993 RMK A01 T01800112  RH  065%=      5-min Rain = 0
KMC4 242300Z 01004KT 18/11 A2993 RMK A01 T01800109  RH  063%=      5-min Rain = 0
KMC4 242301Z 02004KT 18/11 A2993 RMK A01 T01800110  RH  064%=      5-min Rain = 0
KMC4 242302Z 35005KT 18/11 A2993 RMK A01 T01810111  RH  064%=      5-min Rain = 0
KMC4 242303Z 36007KT 18/11 A2993 RMK A01 T01810108  RH  062%=      5-min Rain = 0
KMC4 242304Z 35005KT 18/11 A2993 RMK A01 T01810106  RH  061%=      5-min Rain = 0
KMC4 242305Z 34003KT 18/10 A2993 RMK A01 T01810100  RH  059%=      5-min Rain = 0
KMC4 242306Z 33004KT 18/11 A2993 RMK A01 T01820106  RH  061%=      5-min Rain = 0
KMC4 242307Z 36004KT 18/11 A2993 RMK A01 T01830108  RH  062%=      5-min Rain = 0
KMC4 242308Z 01003KT 18/11 A2993 RMK A01 T01830112  RH  063%=      5-min Rain = 0
KMC4 242309Z 35002KT 18/11 A2993 RMK A01 T01830111  RH  063%=      5-min Rain = 0
KMC4 242310Z 02004KT 18/12 A2993 RMK A01 T01830115  RH  064%=      5-min Rain = 0
KMC4 242311Z 36004KT 18/12 A2993 RMK A01 T01830116  RH  065%=      5-min Rain = 0
KMC4 242312Z 36005KT 18/12 A2993 RMK A01 T01840116  RH  065%=      5-min Rain = 0
KMC4 242313Z 35005KT 18/11 A2993 RMK A01 T01840111  RH  062%=      5-min Rain = 0
KMC4 242314Z 35004KT 18/11 A2993 RMK A01 T01840108  RH  061%=      5-min Rain = 0
KMC4 242315Z 34004KT 18/11 A2993 RMK A01 T01840110  RH  062%=      5-min Rain = 0
KMC4 242316Z 33004KT 18/11 A2993 RMK A01 T01840114  RH  064%=      5-min Rain = 0
KMC4 242317Z 33003KT 19/12 A2993 RMK A01 T01850119  RH  065%=      5-min Rain = 0
KMC4 242318Z 00002KT 19/11 A2993 RMK A01 T01850112  RH  062%=      5-min Rain = 0
KMC4 242319Z 02005KT 19/12 A2993 RMK A01 T01860116  RH  064%=      5-min Rain = 0
KMC4 242320Z 02003KT 19/11 A2993 RMK A01 T01860112  RH  062%=      5-min Rain = 0
KMC4 242321Z 00003KT 19/12 A2993 RMK A01 T01850116  RH  064%=      5-min Rain = 0
KMC4 242322Z 36005KT 19/11 A2993 RMK A01 T01850112  RH  063%=      5-min Rain = 0
KMC4 242323Z 02005KT 19/11 A2993 RMK A01 T01850109  RH  061%=      5-min Rain = 0
KMC4 242324Z 01005KT 18/11 A2993 RMK A01 T01840109  RH  061%=      5-min Rain = 0
KMC4 242325Z 00004KT 18/12 A2993 RMK A01 T01840115  RH  064%=      5-min Rain = 0
KMC4 242326Z 00006KT 19/11 A2993 RMK A01 T01850108  RH  061%=      5-min Rain = 0
KMC4 242327Z 00005KT 18/11 A2993 RMK A01 T01840106  RH  060%=      5-min Rain = 0
KMC4 242328Z 36004KT 18/11 A2993 RMK A01 T01840109  RH  062%=      5-min Rain = 0
KMC4 242329Z 01005KT 18/11 A2993 RMK A01 T01840108  RH  061%=      5-min Rain = 0
KMC4 242330Z 01005KT 18/10 A2992 RMK A01 T01830103  RH  059%=      5-min Rain = 0
KMC4 242331Z 00004KT 18/10 A2993 RMK A01 T01830103  RH  060%=      5-min Rain = 0
KMC4 242332Z 33003KT 18/11 A2993 RMK A01 T01830106  RH  061%=      5-min Rain = 0
KMC4 242333Z 32004KT 18/11 A2993 RMK A01 T01840109  RH  062%=      5-min Rain = 0
KMC4 242334Z 33005KT 19/11 A2993 RMK A01 T01850108  RH  061%=      5-min Rain = 0
KMC4 242335Z 32006KT 19/11 A2993 RMK A01 T01860105  RH  060%=      5-min Rain = 0
KMC4 242336Z 32006KT 19/10 A2993 RMK A01 T01860104  RH  059%=      5-min Rain = 0
KMC4 242337Z 33006KT 19/10 A2992 RMK A01 T01860103  RH  058%=      5-min Rain = 0
KMC4 242338Z 34005KT 19/11 A2992 RMK A01 T01850105  RH  060%=      5-min Rain = 0
KMC4 242339Z 33006KT 19/10 A2992 RMK A01 T01850101  RH  058%=      5-min Rain = 0
KMC4 242340Z 34006KT 19/10 A2993 RMK A01 T01850101  RH  058%=      5-min Rain = 0
KMC4 242341Z 33005KT 19/11 A2993 RMK A01 T01850105  RH  059%=      5-min Rain = 0
KMC4 242342Z 33007KT 19/11 A2993 RMK A01 T01850107  RH  061%=      5-min Rain = 0
KMC4 242343Z 33007KT 19/10 A2992 RMK A01 T01850100  RH  058%=      5-min Rain = 0
KMC4 242344Z 33006KT 18/10 A2993 RMK A01 T01840100  RH  058%=      5-min Rain = 0
KMC4 242345Z 33006KT 18/10 A2993 RMK A01 T01830102  RH  059%=      5-min Rain = 0
KMC4 242346Z 33005KT 18/10 A2992 RMK A01 T01820101  RH  059%=      5-min Rain = 0
KMC4 242347Z 34005KT 18/10 A2992 RMK A01 T01820098  RH  058%=      5-min Rain = 0
KMC4 242348Z 34006KT 18/10 A2992 RMK A01 T01820103  RH  060%=      5-min Rain = 0
KMC4 242349Z 34005KT 18/11 A2992 RMK A01 T01820106  RH  061%=      5-min Rain = 0
KMC4 242350Z 34004KT 18/11 A2992 RMK A01 T01820107  RH  061%=      5-min Rain = 0
KMC4 242351Z 34005KT 18/11 A2992 RMK A01 T01820108  RH  062%=      5-min Rain = 0
KMC4 242352Z 34006KT 18/10 A2992 RMK A01 T01820103  RH  060%=      5-min Rain = 0
KMC4 242353Z 35006KT 18/11 A2992 RMK A01 T01820105  RH  061%=      5-min Rain = 0
KMC4 242354Z 35005KT 18/10 A2992 RMK A01 T01820102  RH  060%=      5-min Rain = 0
KMC4 242355Z 35006KT 18/10 A2992 RMK A01 T01820099  RH  058%=      5-min Rain = 0
KMC4 242356Z 34006KT 18/10 A2992 RMK A01 T01820101  RH  059%=      5-min Rain = 0
KMC4 242357Z 35005KT 18/10 A2992 RMK A01 T01820102  RH  060%=      5-min Rain = 0
KMC4 242358Z 35005KT 18/10 A2992 RMK A01 T01810098  RH  058%=      5-min Rain = 0
KMC4 242359Z 35003KT 18/10 A2992 RMK A01 T01810099  RH  059%=      5-min Rain = 0
KMC4 250000Z 35004KT 18/11 A2992 RMK A01 T01810106  RH  061%=      5-min Rain = 0
KMC4 250001Z 35004KT 18/10 A2992 RMK A01 T01810101  RH  059%=      5-min Rain = 0
KMC4 250002Z 35004KT 18/10 A2992 RMK A01 T01810102  RH  060%=      5-min Rain = 0
KMC4 250003Z 36004KT 18/10 A2992 RMK A01 T01810100  RH  059%=      5-min Rain = 0
KMC4 250004Z 34004KT 18/10 A2992 RMK A01 T01810104  RH  061%=      5-min Rain = 0
KMC4 250005Z 34004KT 18/11 A2992 RMK A01 T01800106  RH  062%=      5-min Rain = 0
KMC4 250006Z 34003KT 18/11 A2992 RMK A01 T01810108  RH  062%=      5-min Rain = 0
KMC4 250007Z 34004KT 18/11 A2992 RMK A01 T01810105  RH  061%=      5-min Rain = 0
KMC4 250008Z 35003KT 18/10 A2992 RMK A01 T01810104  RH  061%=      5-min Rain = 0
KMC4 250009Z 34003KT 18/11 A2992 RMK A01 T01810109  RH  063%=      5-min Rain = 0
KMC4 250010Z 33004KT 18/11 A2992 RMK A01 T01810105  RH  061%=      5-min Rain = 0
KMC4 250011Z 33004KT 18/10 A2992 RMK A01 T01800104  RH  061%=      5-min Rain = 0
KMC4 250012Z 34003KT 18/10 A2992 RMK A01 T01800102  RH  060%=      5-min Rain = 0
KMC4 250013Z 35003KT 18/11 A2992 RMK A01 T01800106  RH  062%=      5-min Rain = 0
KMC4 250014Z 00004KT 18/11 A2992 RMK A01 T01800106  RH  062%=      5-min Rain = 0
KMC4 250015Z 00003KT 18/10 A2992 RMK A01 T01800102  RH  060%=      5-min Rain = 0
KMC4 250016Z 00003KT 18/10 A2992 RMK A01 T01800102  RH  060%=      5-min Rain = 0
KMC4 250017Z 01002KT 18/10 A2992 RMK A01 T01800103  RH  061%=      5-min Rain = 0
KMC4 250018Z 02003KT 18/11 A2992 RMK A01 T01800112  RH  065%=      5-min Rain = 0
KMC4 250019Z 01003KT 18/11 A2992 RMK A01 T01800108  RH  063%=      5-min Rain = 0
KMC4 250020Z 03002KT 18/11 A2992 RMK A01 T01800107  RH  062%=      5-min Rain = 0
KMC4 250021Z 02001KT 18/11 A2992 RMK A01 T01800113  RH  065%=      5-min Rain = 0
KMC4 250022Z 03002KT 18/11 A2992 RMK A01 T01800110  RH  064%=      5-min Rain = 0
KMC4 250023Z 02003KT 18/11 A2992 RMK A01 T01790109  RH  063%=      5-min Rain = 0
KMC4 250024Z 02005KT 18/11 A2992 RMK A01 T01790109  RH  064%=      5-min Rain = 0
KMC4 250025Z 02003KT 18/11 A2992 RMK A01 T01790107  RH  063%=      5-min Rain = 0
KMC4 250026Z 02003KT 18/11 A2992 RMK A01 T01790107  RH  063%=      5-min Rain = 0
KMC4 250027Z 02003KT 18/11 A2992 RMK A01 T01790107  RH  063%=      5-min Rain = 0
KMC4 250028Z 02003KT 18/11 A2992 RMK A01 T01790106  RH  062%=      5-min Rain = 0
KMC4 250029Z 02002KT 18/11 A2992 RMK A01 T01790105  RH  062%=      5-min Rain = 0
KMC4 250030Z 02002KT 18/11 A2992 RMK A01 T01790108  RH  063%=      5-min Rain = 0
KMC4 250031Z 02002KT 18/11 A2992 RMK A01 T01790107  RH  063%=      5-min Rain = 0
KMC4 250032Z 03002KT 18/11 A2992 RMK A01 T01790108  RH  063%=      5-min Rain = 0
KMC4 250033Z 02002KT 18/11 A2992 RMK A01 T01780108  RH  064%=      5-min Rain = 0
KMC4 250034Z 01002KT 18/11 A2992 RMK A01 T01790107  RH  063%=      5-min Rain = 0
KMC4 250035Z 02002KT 18/11 A2992 RMK A01 T01780105  RH  062%=      5-min Rain = 0
KMC4 250036Z 03002KT 18/11 A2992 RMK A01 T01780108  RH  063%=      5-min Rain = 0
KMC4 250037Z 02002KT 18/11 A2992 RMK A01 T01780111  RH  065%=      5-min Rain = 0
KMC4 250038Z 03002KT 18/11 A2992 RMK A01 T01780110  RH  064%=      5-min Rain = 0
KMC4 250039Z 03002KT 18/11 A2992 RMK A01 T01780108  RH  063%=      5-min Rain = 0
KMC4 250040Z 03002KT 18/11 A2992 RMK A01 T01780112  RH  065%=      5-min Rain = 0
KMC4 250041Z 03002KT 18/11 A2992 RMK A01 T01780108  RH  064%=      5-min Rain = 0
KMC4 250042Z 04002KT 18/11 A2992 RMK A01 T01770108  RH  064%=      5-min Rain = 0
KMC4 250043Z 04002KT 18/11 A2992 RMK A01 T01770107  RH  063%=      5-min Rain = 0
KMC4 250044Z 05002KT 18/11 A2992 RMK A01 T01780107  RH  063%=      5-min Rain = 0
KMC4 250045Z 04003KT 18/11 A2992 RMK A01 T01780108  RH  064%=      5-min Rain = 0
KMC4 250046Z 03003KT 18/10 A2992 RMK A01 T01770102  RH  061%=      5-min Rain = 0
KMC4 250047Z 05002KT 18/11 A2992 RMK A01 T01780108  RH  063%=      5-min Rain = 0
KMC4 250048Z 04002KT 18/11 A2992 RMK A01 T01770108  RH  064%=      5-min Rain = 0
KMC4 250049Z 04002KT 18/11 A2992 RMK A01 T01770106  RH  063%=      5-min Rain = 0
KMC4 250050Z 05002KT 18/11 A2992 RMK A01 T01770110  RH  064%=      5-min Rain = 0
KMC4 250051Z 04002KT 18/11 A2992 RMK A01 T01770110  RH  065%=      5-min Rain = 0
KMC4 250052Z 04001KT 18/11 A2992 RMK A01 T01770110  RH  065%=      5-min Rain = 0
KMC4 250053Z 03002KT 18/11 A2992 RMK A01 T01770112  RH  066%=      5-min Rain = 0
KMC4 250054Z 03003KT 18/11 A2992 RMK A01 T01770111  RH  065%=      5-min Rain = 0
KMC4 250055Z 03002KT 18/10 A2992 RMK A01 T01770103  RH  062%=      5-min Rain = 0
KMC4 250056Z 03002KT 18/10 A2992 RMK A01 T01770104  RH  062%=      5-min Rain = 0
KMC4 250057Z 03002KT 18/11 A2992 RMK A01 T01780109  RH  064%=      5-min Rain = 0
KMC4 250058Z 03003KT 18/11 A2992 RMK A01 T01770109  RH  064%=      5-min Rain = 0
KMC4 250059Z 03003KT 18/11 A2992 RMK A01 T01780111  RH  065%=      5-min Rain = 0
KMC4 250100Z 04003KT 18/11 A2992 RMK A01 T01780106  RH  063%=      5-min Rain = 0
KMC4 250101Z 05002KT 18/10 A2992 RMK A01 T01770103  RH  062%=      5-min Rain = 0
KMC4 250102Z 04002KT 18/11 A2992 RMK A01 T01780109  RH  064%=      5-min Rain = 0
KMC4 250103Z 04003KT 18/11 A2992 RMK A01 T01770111  RH  065%=      5-min Rain = 0
KMC4 250104Z 04003KT 18/11 A2992 RMK A01 T01770108  RH  064%=      5-min Rain = 0
KMC4 250105Z 05003KT 18/11 A2992 RMK A01 T01770111  RH  065%=      5-min Rain = 0
KMC4 250106Z 04003KT 18/11 A2992 RMK A01 T01760109  RH  065%=      5-min Rain = 0
KMC4 250107Z 05003KT 18/11 A2992 RMK A01 T01750110  RH  065%=      5-min Rain = 0
KMC4 250108Z 05003KT 18/11 A2992 RMK A01 T01750112  RH  066%=      5-min Rain = 0
KMC4 250109Z 05002KT 17/11 A2992 RMK A01 T01740112  RH  067%=      5-min Rain = 0
KMC4 250110Z 05003KT 17/11 A2993 RMK A01 T01740110  RH  066%=      5-min Rain = 0
KMC4 250111Z 05003KT 17/11 A2993 RMK A01 T01740109  RH  066%=      5-min Rain = 0
KMC4 250112Z 05003KT 17/11 A2993 RMK A01 T01730108  RH  066%=      5-min Rain = 0
KMC4 250113Z 06003KT 17/11 A2993 RMK A01 T01730107  RH  065%=      5-min Rain = 0
KMC4 250114Z 06003KT 17/11 A2993 RMK A01 T01730107  RH  065%=      5-min Rain = 0
KMC4 250115Z 07003KT 17/11 A2992 RMK A01 T01730109  RH  066%=      5-min Rain = 0
KMC4 250116Z 08003KT 17/11 A2992 RMK A01 T01730112  RH  068%=      5-min Rain = 0
KMC4 250117Z 08003KT 17/11 A2992 RMK A01 T01720111  RH  068%=      5-min Rain = 0
KMC4 250118Z 08002KT 17/11 A2992 RMK A01 T01710110  RH  067%=      5-min Rain = 0
KMC4 250119Z 08003KT 17/11 A2992 RMK A01 T01710109  RH  067%=      5-min Rain = 0
KMC4 250120Z 08002KT 17/11 A2992 RMK A01 T01700109  RH  067%=      5-min Rain = 0
KMC4 250121Z 08002KT 17/11 A2992 RMK A01 T01700112  RH  069%=      5-min Rain = 0
KMC4 250122Z 08002KT 17/11 A2992 RMK A01 T01690112  RH  069%=      5-min Rain = 0
KMC4 250123Z 08002KT 17/11 A2993 RMK A01 T01690112  RH  069%=      5-min Rain = 0
KMC4 250124Z 08002KT 17/11 A2993 RMK A01 T01680111  RH  069%=      5-min Rain = 0
KMC4 250125Z 08002KT 17/11 A2993 RMK A01 T01670111  RH  069%=      5-min Rain = 0
KMC4 250126Z 09002KT 17/11 A2993 RMK A01 T01670109  RH  069%=      5-min Rain = 0
KMC4 250127Z 10002KT 17/11 A2993 RMK A01 T01670108  RH  068%=      5-min Rain = 0
KMC4 250128Z 11001KT 17/11 A2993 RMK A01 T01670111  RH  069%=      5-min Rain = 0
KMC4 250129Z 11002KT 17/11 A2993 RMK A01 T01670113  RH  070%=      5-min Rain = 0
KMC4 250130Z 11002KT 17/11 A2993 RMK A01 T01670114  RH  071%=      5-min Rain = 0
KMC4 250131Z 12002KT 17/11 A2993 RMK A01 T01660113  RH  071%=      5-min Rain = 0
KMC4 250132Z 12002KT 17/12 A2993 RMK A01 T01660115  RH  072%=      5-min Rain = 0
KMC4 250133Z 13001KT 17/12 A2993 RMK A01 T01650119  RH  074%=      5-min Rain = 0
KMC4 250134Z 14001KT 17/12 A2993 RMK A01 T01650120  RH  075%=      5-min Rain = 0
KMC4 250135Z 14001KT 16/12 A2993 RMK A01 T01640122  RH  076%=      5-min Rain = 0
KMC4 250136Z 15001KT 16/13 A2993 RMK A01 T01630126  RH  079%=      5-min Rain = 0
KMC4 250137Z 16001KT 16/13 A2993 RMK A01 T01610127  RH  080%=      5-min Rain = 0
KMC4 250138Z 20001KT 16/13 A2993 RMK A01 T01590126  RH  081%=      5-min Rain = 0
KMC4 250139Z 19001KT 16/13 A2993 RMK A01 T01570127  RH  082%=      5-min Rain = 0
KMC4 250140Z 19001KT 16/13 A2993 RMK A01 T01560127  RH  083%=      5-min Rain = 0
KMC4 250141Z 18001KT 16/13 A2993 RMK A01 T01550126  RH  083%=      5-min Rain = 0
KMC4 250142Z 18001KT 15/13 A2993 RMK A01 T01540126  RH  083%=      5-min Rain = 0
KMC4 250143Z 19001KT 15/13 A2993 RMK A01 T01540126  RH  083%=      5-min Rain = 0
KMC4 250144Z 19001KT 15/13 A2993 RMK A01 T01540126  RH  083%=      5-min Rain = 0
KMC4 250145Z 19001KT 15/13 A2993 RMK A01 T01540127  RH  084%=      5-min Rain = 0
KMC4 250146Z 19001KT 15/13 A2993 RMK A01 T01540126  RH  084%=      5-min Rain = 0
KMC4 250147Z 19001KT 15/13 A2993 RMK A01 T01540126  RH  083%=      5-min Rain = 0
KMC4 250148Z 19002KT 15/13 A2994 RMK A01 T01540125  RH  083%=      5-min Rain = 0
KMC4 250149Z 19002KT 15/13 A2994 RMK A01 T01540125  RH  083%=      5-min Rain = 0
KMC4 250150Z 19002KT 15/13 A2994 RMK A01 T01540125  RH  082%=      5-min Rain = 0
KMC4 250151Z 18002KT 15/13 A2994 RMK A01 T01540125  RH  082%=      5-min Rain = 0
KMC4 250152Z 18002KT 15/13 A2994 RMK A01 T01540125  RH  083%=      5-min Rain = 0
KMC4 250153Z 18003KT 15/13 A2994 RMK A01 T01540126  RH  083%=      5-min Rain = 0
KMC4 250154Z 18003KT 15/13 A2994 RMK A01 T01540127  RH  084%=      5-min Rain = 0
KMC4 250155Z 18003KT 15/13 A2994 RMK A01 T01540127  RH  084%=      5-min Rain = 0
KMC4 250156Z 18002KT 15/13 A2994 RMK A01 T01530127  RH  084%=      5-min Rain = 0
KMC4 250157Z 17002KT 15/13 A2994 RMK A01 T01530127  RH  085%=      5-min Rain = 0
KMC4 250158Z 15002KT 15/13 A2994 RMK A01 T01520128  RH  085%=      5-min Rain = 0
KMC4 250159Z 13002KT 15/13 A2994 RMK A01 T01520127  RH  085%=      5-min Rain = 0
KMC4 250200Z 13002KT 15/13 A2994 RMK A01 T01510126  RH  085%=      5-min Rain = 0
KMC4 250201Z 13002KT 15/13 A2994 RMK A01 T01510126  RH  085%=      5-min Rain = 0
KMC4 250202Z 13002KT 15/13 A2994 RMK A01 T01510125  RH  084%=      5-min Rain = 0
KMC4 250203Z 13002KT 15/12 A2994 RMK A01 T01510124  RH  084%=      5-min Rain = 0
KMC4 250204Z 13002KT 15/12 A2994 RMK A01 T01510123  RH  083%=      5-min Rain = 0
KMC4 250205Z 13002KT 15/12 A2994 RMK A01 T01510123  RH  083%=      5-min Rain = 0
KMC4 250206Z 13002KT 15/12 A2994 RMK A01 T01510123  RH  083%=      5-min Rain = 0
KMC4 250207Z 13002KT 15/12 A2994 RMK A01 T01510123  RH  084%=      5-min Rain = 0
KMC4 250208Z 13002KT 15/12 A2994 RMK A01 T01510123  RH  084%=      5-min Rain = 0
KMC4 250209Z 13002KT 15/12 A2994 RMK A01 T01510124  RH  084%=      5-min Rain = 0
KMC4 250210Z 13002KT 15/12 A2994 RMK A01 T01500124  RH  084%=      5-min Rain = 0
KMC4 250211Z 13002KT 15/13 A2994 RMK A01 T01500125  RH  085%=      5-min Rain = 0
KMC4 250212Z 13003KT 15/13 A2994 RMK A01 T01500125  RH  085%=      5-min Rain = 0
KMC4 250213Z 13003KT 15/12 A2994 RMK A01 T01490124  RH  085%=      5-min Rain = 0
KMC4 250214Z 13003KT 15/12 A2994 RMK A01 T01490123  RH  085%=      5-min Rain = 0
KMC4 250215Z 14003KT 15/12 A2994 RMK A01 T01490123  RH  085%=      5-min Rain = 0
KMC4 250216Z 14003KT 15/13 A2994 RMK A01 T01490125  RH  085%=      5-min Rain = 0
KMC4 250217Z 14003KT 15/13 A2994 RMK A01 T01490126  RH  086%=      5-min Rain = 0
KMC4 250218Z 14002KT 15/13 A2994 RMK A01 T01490127  RH  086%=      5-min Rain = 0
KMC4 250219Z 14002KT 15/13 A2994 RMK A01 T01490127  RH  086%=      5-min Rain = 0
KMC4 250220Z 13002KT 15/13 A2994 RMK A01 T01490126  RH  086%=      5-min Rain = 0
KMC4 250221Z 13002KT 15/13 A2994 RMK A01 T01480125  RH  086%=      5-min Rain = 0
KMC4 250222Z 13002KT 15/13 A2994 RMK A01 T01480125  RH  086%=      5-min Rain = 0
KMC4 250223Z 13002KT 15/13 A2995 RMK A01 T01470126  RH  087%=      5-min Rain = 0
KMC4 250224Z 12002KT 15/13 A2995 RMK A01 T01470127  RH  088%=      5-min Rain = 0
KMC4 250225Z 13002KT 15/13 A2995 RMK A01 T01470127  RH  088%=      5-min Rain = 0
KMC4 250226Z 13002KT 15/13 A2995 RMK A01 T01470127  RH  088%=      5-min Rain = 0
KMC4 250227Z 13002KT 15/13 A2995 RMK A01 T01460127  RH  088%=      5-min Rain = 0
KMC4 250228Z 13002KT 15/13 A2995 RMK A01 T01460126  RH  088%=      5-min Rain = 0
KMC4 250229Z 13002KT 15/13 A2995 RMK A01 T01460126  RH  088%=      5-min Rain = 0
KMC4 250230Z 13002KT 15/13 A2995 RMK A01 T01460126  RH  088%=      5-min Rain = 0
KMC4 250231Z 13002KT 15/13 A2995 RMK A01 T01460126  RH  088%=      5-min Rain = 0
KMC4 250232Z 13002KT 15/13 A2995 RMK A01 T01450125  RH  088%=      5-min Rain = 0
KMC4 250233Z 13002KT 15/13 A2995 RMK A01 T01450125  RH  088%=      5-min Rain = 0
KMC4 250234Z 13002KT 14/12 A2995 RMK A01 T01440124  RH  088%=      5-min Rain = 0
KMC4 250235Z 13002KT 14/12 A2995 RMK A01 T01440123  RH  088%=      5-min Rain = 0
KMC4 250236Z 13002KT 14/12 A2995 RMK A01 T01430123  RH  088%=      5-min Rain = 0
KMC4 250237Z 13002KT 14/12 A2995 RMK A01 T01430123  RH  088%=      5-min Rain = 0
KMC4 250238Z 14002KT 14/12 A2995 RMK A01 T01430123  RH  088%=      5-min Rain = 0
KMC4 250239Z 14002KT 14/12 A2995 RMK A01 T01430122  RH  087%=      5-min Rain = 0
KMC4 250240Z 13002KT 14/12 A2995 RMK A01 T01430122  RH  087%=      5-min Rain = 0
KMC4 250241Z 13002KT 14/12 A2995 RMK A01 T01430121  RH  087%=      5-min Rain = 0
KMC4 250242Z 12002KT 14/12 A2995 RMK A01 T01440122  RH  087%=      5-min Rain = 0
KMC4 250243Z 12002KT 14/12 A2995 RMK A01 T01440124  RH  088%=      5-min Rain = 0
KMC4 250244Z 12003KT 15/13 A2995 RMK A01 T01450128  RH  090%=      5-min Rain = 0
KMC4 250245Z 11003KT 15/13 A2995 RMK A01 T01460130  RH  091%=      5-min Rain = 0
KMC4 250246Z 11003KT 15/13 A2995 RMK A01 T01450129  RH  090%=      5-min Rain = 0
KMC4 250247Z 11003KT 14/12 A2995 RMK A01 T01440122  RH  087%=      5-min Rain = 0
KMC4 250248Z 11002KT 14/12 A2995 RMK A01 T01440119  RH  085%=      5-min Rain = 0
KMC4 250249Z 11003KT 14/12 A2995 RMK A01 T01440120  RH  085%=      5-min Rain = 0
KMC4 250250Z 10002KT 15/12 A2995 RMK A01 T01450122  RH  086%=      5-min Rain = 0
KMC4 250251Z 10003KT 15/12 A2995 RMK A01 T01450123  RH  087%=      5-min Rain = 0
KMC4 250252Z 09003KT 15/12 A2995 RMK A01 T01450122  RH  086%=      5-min Rain = 0
KMC4 250253Z 09003KT 15/12 A2995 RMK A01 T01450121  RH  086%=      5-min Rain = 0
KMC4 250254Z 09003KT 14/12 A2995 RMK A01 T01440121  RH  086%=      5-min Rain = 0
KMC4 250255Z 08003KT 14/12 A2995 RMK A01 T01440122  RH  086%=      5-min Rain = 0
KMC4 250256Z 08004KT 14/12 A2995 RMK A01 T01440122  RH  086%=      5-min Rain = 0
KMC4 250257Z 09004KT 14/12 A2995 RMK A01 T01440122  RH  087%=      5-min Rain = 0
KMC4 250258Z 09004KT 14/12 A2995 RMK A01 T01440123  RH  087%=      5-min Rain = 0
KMC4 250259Z 09004KT 14/12 A2995 RMK A01 T01430123  RH  087%=      5-min Rain = 0
KMC4 250300Z 09004KT 14/12 A2995 RMK A01 T01430123  RH  088%=      5-min Rain = 0
KMC4 250301Z 08004KT 14/12 A2995 RMK A01 T01430123  RH  088%=      5-min Rain = 0
KMC4 250302Z 08004KT 14/12 A2995 RMK A01 T01430122  RH  087%=      5-min Rain = 0
KMC4 250303Z 07004KT 14/12 A2995 RMK A01 T01430122  RH  087%=      5-min Rain = 0
KMC4 250304Z 07005KT 14/12 A2995 RMK A01 T01420121  RH  087%=      5-min Rain = 0
KMC4 250305Z 07005KT 14/12 A2995 RMK A01 T01430120  RH  086%=      5-min Rain = 0
KMC4 250306Z 06005KT 14/12 A2995 RMK A01 T01420120  RH  086%=      5-min Rain = 0
KMC4 250307Z 06005KT 14/12 A2995 RMK A01 T01420120  RH  087%=      5-min Rain = 0
KMC4 250308Z 06005KT 14/12 A2995 RMK A01 T01420120  RH  087%=      5-min Rain = 0
KMC4 250309Z 05004KT 14/12 A2995 RMK A01 T01430120  RH  086%=      5-min Rain = 0
KMC4 250310Z 05004KT 14/12 A2995 RMK A01 T01430121  RH  086%=      5-min Rain = 0
KMC4 250311Z 05004KT 14/12 A2995 RMK A01 T01430121  RH  087%=      5-min Rain = 0
KMC4 250312Z 06005KT 14/12 A2995 RMK A01 T01430120  RH  086%=      5-min Rain = 0
KMC4 250313Z 06005KT 14/12 A2995 RMK A01 T01430120  RH  086%=      5-min Rain = 0
KMC4 250314Z 06005KT 14/12 A2995 RMK A01 T01430119  RH  085%=      5-min Rain = 0
KMC4 250315Z 06005KT 14/12 A2995 RMK A01 T01430118  RH  085%=      5-min Rain = 0
KMC4 250316Z 06005KT 14/12 A2995 RMK A01 T01430119  RH  085%=      5-min Rain = 0
KMC4 250317Z 06005KT 14/12 A2995 RMK A01 T01430119  RH  085%=      5-min Rain = 0
KMC4 250318Z 05005KT 14/12 A2995 RMK A01 T01430119  RH  085%=      5-min Rain = 0
KMC4 250319Z 06005KT 14/12 A2995 RMK A01 T01430118  RH  085%=      5-min Rain = 0
KMC4 250320Z 06005KT 14/12 A2995 RMK A01 T01430118  RH  085%=      5-min Rain = 0
KMC4 250321Z 06005KT 14/12 A2995 RMK A01 T01430117  RH  085%=      5-min Rain = 0
KMC4 250322Z 06004KT 14/12 A2995 RMK A01 T01430117  RH  084%=      5-min Rain = 0
KMC4 250323Z 06003KT 14/12 A2995 RMK A01 T01430116  RH  084%=      5-min Rain = 0
KMC4 250324Z 05003KT 14/12 A2995 RMK A01 T01440116  RH  083%=      5-min Rain = 0
KMC4 250325Z 05004KT 14/12 A2995 RMK A01 T01440116  RH  083%=      5-min Rain = 0
KMC4 250326Z 05004KT 14/12 A2995 RMK A01 T01440116  RH  084%=      5-min Rain = 0
KMC4 250327Z 04005KT 14/12 A2996 RMK A01 T01440116  RH  084%=      5-min Rain = 0
KMC4 250328Z 04004KT 14/12 A2996 RMK A01 T01440116  RH  083%=      5-min Rain = 0
KMC4 250329Z 05005KT 14/12 A2996 RMK A01 T01440117  RH  083%=      5-min Rain = 0
KMC4 250330Z 04005KT 15/12 A2996 RMK A01 T01450117  RH  084%=      5-min Rain = 0
KMC4 250331Z 05005KT 14/12 A2996 RMK A01 T01440117  RH  084%=      5-min Rain = 0
KMC4 250332Z 05005KT 14/12 A2996 RMK A01 T01440117  RH  084%=      5-min Rain = 0
KMC4 250333Z 05005KT 14/12 A2996 RMK A01 T01440118  RH  084%=      5-min Rain = 0
KMC4 250334Z 05005KT 14/12 A2996 RMK A01 T01440118  RH  084%=      5-min Rain = 0
KMC4 250335Z 05005KT 14/12 A2996 RMK A01 T01440118  RH  085%=      5-min Rain = 0
KMC4 250336Z 05006KT 14/12 A2996 RMK A01 T01430119  RH  085%=      5-min Rain = 0
KMC4 250337Z 05006KT 14/12 A2996 RMK A01 T01420119  RH  086%=      5-min Rain = 0
KMC4 250338Z 05006KT 14/12 A2996 RMK A01 T01420119  RH  086%=      5-min Rain = 0
KMC4 250339Z 05005KT 14/12 A2996 RMK A01 T01420118  RH  086%=      5-min Rain = 0
KMC4 250340Z 05005KT 14/12 A2996 RMK A01 T01420119  RH  086%=      5-min Rain = 0
KMC4 250341Z 05005KT 14/12 A2996 RMK A01 T01420119  RH  086%=      5-min Rain = 0
KMC4 250342Z 05004KT 14/12 A2996 RMK A01 T01410118  RH  086%=      5-min Rain = 0
KMC4 250343Z 05004KT 14/12 A2996 RMK A01 T01410118  RH  086%=      5-min Rain = 0
KMC4 250344Z 06003KT 14/12 A2996 RMK A01 T01420118  RH  086%=      5-min Rain = 0
KMC4 250345Z 05002KT 14/12 A2996 RMK A01 T01410118  RH  086%=      5-min Rain = 0
KMC4 250346Z 06003KT 14/12 A2996 RMK A01 T01420118  RH  086%=      5-min Rain = 0
KMC4 250347Z 06003KT 14/12 A2996 RMK A01 T01410118  RH  086%=      5-min Rain = 0
KMC4 250348Z 06003KT 14/12 A2996 RMK A01 T01410118  RH  086%=      5-min Rain = 0
KMC4 250349Z 06002KT 14/12 A2996 RMK A01 T01410118  RH  086%=      5-min Rain = 0
KMC4 250350Z 06001KT 14/12 A2996 RMK A01 T01410118  RH  086%=      5-min Rain = 0
KMC4 250351Z 22000KT 14/12 A2996 RMK A01 T01410119  RH  086%=      5-min Rain = 0
KMC4 250352Z 21002KT 14/12 A2996 RMK A01 T01400118  RH  087%=      5-min Rain = 0
KMC4 250353Z 21001KT 14/12 A2996 RMK A01 T01380117  RH  088%=      5-min Rain = 0
KMC4 250354Z 04000KT 14/12 A2996 RMK A01 T01370118  RH  088%=      5-min Rain = 0
KMC4 250355Z 04001KT 14/12 A2996 RMK A01 T01360118  RH  089%=      5-min Rain = 0
KMC4 250356Z 07001KT 14/12 A2996 RMK A01 T01360118  RH  089%=      5-min Rain = 0
KMC4 250357Z 08001KT 14/12 A2996 RMK A01 T01360118  RH  089%=      5-min Rain = 0
KMC4 250358Z 08001KT 14/12 A2996 RMK A01 T01370119  RH  089%=      5-min Rain = 0
KMC4 250359Z 10001KT 14/12 A2996 RMK A01 T01360118  RH  089%=      5-min Rain = 0
KMC4 250400Z 09001KT 14/12 A2996 RMK A01 T01360119  RH  089%=      5-min Rain = 0
KMC4 250401Z 08001KT 14/12 A2996 RMK A01 T01350119  RH  090%=      5-min Rain = 0
KMC4 250402Z 09001KT 14/12 A2996 RMK A01 T01350118  RH  090%=      5-min Rain = 0
KMC4 250403Z 08001KT 14/12 A2996 RMK A01 T01350119  RH  090%=      5-min Rain = 0
KMC4 250404Z 08000KT 13/12 A2996 RMK A01 T01340119  RH  090%=      5-min Rain = 0
KMC4 250405Z 07001KT 13/12 A2996 RMK A01 T01340119  RH  090%=      5-min Rain = 0
KMC4 250406Z 06001KT 13/12 A2996 RMK A01 T01340119  RH  091%=      5-min Rain = 0
KMC4 250407Z 07001KT 13/12 A2996 RMK A01 T01340119  RH  091%=      5-min Rain = 0
KMC4 250408Z 07002KT 13/12 A2996 RMK A01 T01340119  RH  091%=      5-min Rain = 0
KMC4 250409Z 07003KT 13/12 A2996 RMK A01 T01340119  RH  091%=      5-min Rain = 0
KMC4 250410Z 07004KT 13/12 A2996 RMK A01 T01340119  RH  091%=      5-min Rain = 0
KMC4 250411Z 07004KT 14/12 A2996 RMK A01 T01350120  RH  091%=      5-min Rain = 0
KMC4 250412Z 07004KT 14/12 A2996 RMK A01 T01360120  RH  090%=      5-min Rain = 0
KMC4 250413Z 07004KT 14/12 A2996 RMK A01 T01360120  RH  090%=      5-min Rain = 0
KMC4 250414Z 07005KT 14/12 A2996 RMK A01 T01370120  RH  090%=      5-min Rain = 0
KMC4 250415Z 07004KT 14/12 A2995 RMK A01 T01370121  RH  090%=      5-min Rain = 0
KMC4 250416Z 07005KT 14/12 A2995 RMK A01 T01380121  RH  090%=      5-min Rain = 0
KMC4 250417Z 07005KT 14/12 A2995 RMK A01 T01380120  RH  089%=      5-min Rain = 0
KMC4 250418Z 06005KT 14/12 A2995 RMK A01 T01380120  RH  089%=      5-min Rain = 0
KMC4 250419Z 06004KT 14/12 A2995 RMK A01 T01380120  RH  089%=      5-min Rain = 0
KMC4 250420Z 06004KT 14/12 A2995 RMK A01 T01380120  RH  089%=      5-min Rain = 0
KMC4 250421Z 07004KT 14/12 A2995 RMK A01 T01380120  RH  089%=      5-min Rain = 0
KMC4 250422Z 07004KT 14/12 A2995 RMK A01 T01380120  RH  089%=      5-min Rain = 0
KMC4 250423Z 07003KT 14/12 A2995 RMK A01 T01370120  RH  089%=      5-min Rain = 0
KMC4 250424Z 06003KT 14/12 A2995 RMK A01 T01370120  RH  089%=      5-min Rain = 0
KMC4 250425Z 07003KT 14/12 A2995 RMK A01 T01370120  RH  089%=      5-min Rain = 0
KMC4 250426Z 06003KT 14/12 A2995 RMK A01 T01370120  RH  089%=      5-min Rain = 0
KMC4 250427Z 06004KT 14/12 A2995 RMK A01 T01370119  RH  089%=      5-min Rain = 0
KMC4 250428Z 06004KT 14/12 A2995 RMK A01 T01370119  RH  089%=      5-min Rain = 0
KMC4 250429Z 05004KT 14/12 A2995 RMK A01 T01370119  RH  089%=      5-min Rain = 0
KMC4 250430Z 05005KT 14/12 A2995 RMK A01 T01370119  RH  089%=      5-min Rain = 0
KMC4 250431Z 05005KT 14/12 A2995 RMK A01 T01360119  RH  090%=      5-min Rain = 0
KMC4 250432Z 05005KT 14/12 A2995 RMK A01 T01360120  RH  090%=      5-min Rain = 0
KMC4 250433Z 05005KT 14/12 A2995 RMK A01 T01350120  RH  090%=      5-min Rain = 0
KMC4 250434Z 05005KT 14/12 A2995 RMK A01 T01360120  RH  090%=      5-min Rain = 0
KMC4 250435Z 05004KT 14/12 A2995 RMK A01 T01350120  RH  090%=      5-min Rain = 0
KMC4 250436Z 05003KT 14/12 A2995 RMK A01 T01360119  RH  090%=      5-min Rain = 0
KMC4 250437Z 06002KT 14/12 A2995 RMK A01 T01350119  RH  090%=      5-min Rain = 0
KMC4 250438Z 06001KT 14/12 A2995 RMK A01 T01360119  RH  090%=      5-min Rain = 0
KMC4 250439Z 07001KT 14/12 A2995 RMK A01 T01350119  RH  089%=      5-min Rain = 0
KMC4 250440Z 07001KT 14/12 A2995 RMK A01 T01360118  RH  089%=      5-min Rain = 0
KMC4 250441Z 08001KT 14/12 A2995 RMK A01 T01360119  RH  089%=      5-min Rain = 0
KMC4 250442Z 09000KT 14/12 A2995 RMK A01 T01360118  RH  089%=      5-min Rain = 0
KMC4 250443Z 00000KT 14/12 A2995 RMK A01 T01360119  RH  089%=      5-min Rain = 0
KMC4 250444Z 07000KT 14/12 A2995 RMK A01 T01360119  RH  089%=      5-min Rain = 0
KMC4 250445Z 06001KT 14/12 A2995 RMK A01 T01360119  RH  089%=      5-min Rain = 0
KMC4 250446Z 06001KT 14/12 A2995 RMK A01 T01350119  RH  090%=      5-min Rain = 0
KMC4 250447Z 04001KT 14/12 A2995 RMK A01 T01350118  RH  090%=      5-min Rain = 0
KMC4 250448Z 04000KT 14/12 A2995 RMK A01 T01350118  RH  090%=      5-min Rain = 0
KMC4 250449Z 00000KT 14/12 A2995 RMK A01 T01350118  RH  090%=      5-min Rain = 0
KMC4 250450Z 00000KT 13/12 A2995 RMK A01 T01340118  RH  090%=      5-min Rain = 0
KMC4 250451Z 00000KT 13/12 A2995 RMK A01 T01340118  RH  090%=      5-min Rain = 0
KMC4 250452Z 00000KT 13/12 A2995 RMK A01 T01330118  RH  090%=      5-min Rain = 0
KMC4 250453Z 00000KT 13/12 A2995 RMK A01 T01330118  RH  091%=      5-min Rain = 0
KMC4 250454Z 00000KT 13/12 A2995 RMK A01 T01320118  RH  091%=      5-min Rain = 0
KMC4 250455Z 01000KT 13/12 A2995 RMK A01 T01320118  RH  091%=      5-min Rain = 0
KMC4 250456Z 02000KT 13/12 A2995 RMK A01 T01310117  RH  091%=      5-min Rain = 0
KMC4 250457Z 00000KT 13/12 A2995 RMK A01 T01310117  RH  091%=      5-min Rain = 0
KMC4 250458Z 00000KT 13/12 A2995 RMK A01 T01290115  RH  091%=      5-min Rain = 0
KMC4 250459Z 00000KT 13/11 A2995 RMK A01 T01280114  RH  092%=      5-min Rain = 0

Page generated in 0.0365 seconds.